M I D A S
Marine Information and Data Acquisition System
Tripno 1764 of the Zeeleeuw from 2009-07-14 06:55:09 to 2009-07-14 15:07:34
Back to CruiseResearch ActivitiesStationsMapUnderway DataData graphs

EquipmentUnitsComment
TimeDGPSUTC
LatitudeDGPSDM.mWGS84
LongitudeDGPSDM.mWGS84
TemperatureSBE03/SBE38deg celciusITS90
ConductivitySBE21S/mITS90
SalinitySBE21 Practical Salinity Units
ChlorophylAChelsea fluorimeterg/lCalibrated in Aceton
Missing or incorrect values are displayed as -999
Sea surface data collected by the RV Zeeleeuw from 2009-07-14 06:40:25 to 2009-07-14 15:14:00
                                                                                    Next 1000 lines
Time Latitude Longitude Temperature Conductivity Salinity ChlorophylA
2009-07-14 06:40:35 51°13.663 2°55.96 22.7455 0.173734 0.899583 36.992474
2009-07-14 06:40:40 51°13.663 2°55.96 22.7462 0.174351 0.902936 36.992474
2009-07-14 06:40:45 51°13.663 2°55.96 22.7493 0.176101 0.912452 36.95765
2009-07-14 06:40:50 51°13.663 2°55.961 22.7503 0.177336 0.919164 36.992474
2009-07-14 06:40:55 51°13.663 2°55.961 22.7529 0.174351 0.902965 36.992474
2009-07-14 06:41:00 51°13.663 2°55.961 22.75 0.174351 0.902965 36.992474
2009-07-14 06:41:05 51°13.663 2°55.961 22.7502 0.170852 0.883978 36.992474
2009-07-14 06:41:10 51°13.663 2°55.961 22.7488 0.175792 0.91079 36.992474
2009-07-14 06:41:15 51°13.663 2°55.961 22.7498 0.174145 0.901861 36.992474
2009-07-14 06:41:20 51°13.663 2°55.961 22.7503 0.175483 0.909127 36.992474
2009-07-14 06:41:26 51°13.663 2°55.961 22.7519 0.178571 0.925907 36.992474
2009-07-14 06:41:31 51°13.663 2°55.96 22.7528 0.178571 0.925907 36.992474
2009-07-14 06:41:36 51°13.663 2°55.96 22.7538 0.176821 0.916411 36.992474
2009-07-14 06:41:41 51°13.663 2°55.96 22.7539 0.175792 0.910833 36.992474
2009-07-14 06:41:46 51°13.663 2°55.96 22.7545 0.175072 0.90692 36.992474
2009-07-14 06:41:51 51°13.663 2°55.96 22.7549 0.175895 0.911407 36.992474
2009-07-14 06:41:56 51°13.663 2°55.96 22.7554 0.177439 0.919797 37.027298
2009-07-14 06:42:01 51°13.663 2°55.96 22.7552 0.177439 0.919797 37.027298
2009-07-14 06:42:06 51°13.663 2°55.96 22.7553 0.172498 0.892967 37.027298
2009-07-14 06:42:10 51°13.663 2°55.96 22.7567 0.175586 0.90973 37.027298
2009-07-14 06:42:16 51°13.663 2°55.96 22.7582 0.173939 0.900802 36.992474
2009-07-14 06:42:21 51°13.663 2°55.96 22.7577 0.176204 0.913114 37.027298
2009-07-14 06:42:26 51°13.663 2°55.96 22.7608 0.176924 0.917029 37.027298
2009-07-14 06:42:30 51°13.663 2°55.96 22.7616 0.176924 0.917029 37.027298
2009-07-14 06:42:35 51°13.663 2°55.96 22.7607 0.175483 0.909214 37.027298
2009-07-14 06:42:40 51°13.663 2°55.96 22.7613 0.175072 0.906978 37.027298
2009-07-14 06:42:46 51°13.663 2°55.96 22.7619 0.17641 0.914262 37.027298
2009-07-14 06:42:51 51°13.663 2°55.96 22.7619 0.177336 0.919296 37.027298
2009-07-14 06:42:55 51°13.663 2°55.96 22.7621 0.174763 0.905316 37.027298
2009-07-14 06:43:00 51°13.663 2°55.96 22.7627 0.174763 0.905316 37.027298
2009-07-14 06:43:05 51°13.663 2°55.96 22.7631 0.17538 0.90867 37.027298
2009-07-14 06:43:10 51°13.663 2°55.96 22.7634 0.177233 0.918751 37.027298
2009-07-14 06:43:15 51°13.663 2°55.96 22.7631 0.176924 0.917088 37.027298
2009-07-14 06:43:20 51°13.663 2°55.96 22.764 0.175483 0.909258 37.027298
2009-07-14 06:43:25 51°13.663 2°55.96 22.7641 0.177851 0.922138 37.027298
2009-07-14 06:43:30 51°13.663 2°55.96 22.7645 0.177851 0.922138 37.027298
2009-07-14 06:43:35 51°13.663 2°55.96 22.7647 0.177439 0.9199 37.062123
2009-07-14 06:43:40 51°13.663 2°55.96 22.7655 0.178056 0.923257 37.062123
2009-07-14 06:43:45 51°13.663 2°55.96 22.765 0.175689 0.910391 37.062123
2009-07-14 06:43:50 51°13.663 2°55.96 22.7641 0.177851 0.922153 37.062123
2009-07-14 06:43:55 51°13.663 2°55.96 22.764 0.179189 0.929444 37.062123
2009-07-14 06:44:00 51°13.663 2°55.96 22.7634 0.179189 0.929444 37.062123
2009-07-14 06:44:05 51°13.663 2°55.96 22.7644 0.175586 0.909861 37.062123
2009-07-14 06:44:10 51°13.663 2°55.96 22.7643 0.174145 0.902049 37.062123
2009-07-14 06:44:15 51°13.663 2°55.96 22.7655 0.17641 0.914349 37.062123
2009-07-14 06:44:20 51°13.663 2°55.96 22.7664 0.176307 0.913805 37.027298
2009-07-14 06:44:25 51°13.663 2°55.96 22.7674 0.176615 0.915483 37.062123
2009-07-14 06:44:30 51°13.663 2°55.96 22.7679 0.176615 0.915483 37.062123
2009-07-14 06:44:34 51°13.663 2°55.96 22.7678 0.177027 0.917735 37.062123
2009-07-14 06:44:40 51°13.663 2°55.96 22.7681 0.175895 0.911582 37.062123
2009-07-14 06:44:45 51°13.663 2°55.96 22.7682 0.173836 0.900401 37.062123
2009-07-14 06:44:50 51°13.663 2°55.96 22.7682 0.174248 0.902637 37.062123
2009-07-14 06:44:54 51°13.663 2°55.96 22.769 0.174969 0.90655 37.062123
2009-07-14 06:44:59 51°13.663 2°55.96 22.769 0.174969 0.90655 37.062123
2009-07-14 06:45:05 51°13.662 2°55.96 22.7694 0.175895 0.911597 37.062123
2009-07-14 06:45:10 51°13.662 2°55.96 22.7692 0.176924 0.917205 37.062123
2009-07-14 06:45:15 51°13.662 2°55.96 22.7695 0.178777 0.927279 37.096947
2009-07-14 06:45:19 51°13.662 2°55.96 22.7696 0.179497 0.931213 37.096947
2009-07-14 06:45:25 51°13.662 2°55.96 22.769 0.176204 0.913304 37.096947
2009-07-14 06:45:30 51°13.662 2°55.96 22.7694 0.176204 0.913304 37.096947
2009-07-14 06:45:34 51°13.662 2°55.96 22.7709 0.17466 0.904916 37.096947
2009-07-14 06:45:40 51°13.661 2°55.96 22.7707 0.173013 0.895989 37.096947
2009-07-14 06:45:44 51°13.661 2°55.96 22.7715 0.173219 0.897106 37.096947
2009-07-14 06:45:50 51°13.661 2°55.96 22.7721 0.175277 0.9083 37.096947
2009-07-14 06:45:55 51°13.661 2°55.96 22.7663 0.17219 0.891534 37.096947
2009-07-14 06:45:59 51°13.661 2°55.96 22.7405 0.17219 0.891534 37.096947
2009-07-14 06:46:05 51°13.661 2°55.959 22.7208 0.144709 0.743182 37.096947
2009-07-14 06:46:10 51°13.662 2°55.958 22.6737 0.167146 0.864165 37.096947
2009-07-14 06:46:15 51°13.662 2°55.957 22.7276 0.148723 0.764732 37.096947
2009-07-14 06:46:20 51°13.663 2°55.955 22.7572 0.167867 0.868081 37.131771
2009-07-14 06:46:25 51°13.663 2°55.952 22.7611 0.155619 0.801884 37.096947
2009-07-14 06:46:30 51°13.664 2°55.949 22.7571 0.155619 0.801884 37.096947
2009-07-14 06:46:35 51°13.665 2°55.946 22.7751 0.16128 0.83244 37.096947
2009-07-14 06:46:40 51°13.666 2°55.941 22.7677 0.15531 0.800232 37.096947
2009-07-14 06:46:46 51°13.668 2°55.936 22.774 0.156442 0.806324 37.096947
2009-07-14 06:46:51 51°13.669 2°55.931 22.7708 0.15531 0.800232 37.131771
2009-07-14 06:46:57 51°13.671 2°55.925 22.7751 0.152325 0.784163 37.131771
2009-07-14 06:47:03 51°13.673 2°55.918 22.796 0.152325 0.784163 37.131771
2009-07-14 06:47:08 51°13.674 2°55.912 22.7873 0.173013 0.896017 37.096947
2009-07-14 06:47:13 51°13.675 2°55.906 22.7932 0.180012 0.934118 37.096947
2009-07-14 06:47:18 51°13.677 2°55.9 22.7686 0.180218 0.935254 37.131771
2009-07-14 06:47:23 51°13.678 2°55.894 22.7893 0.175689 0.910639 37.096947
2009-07-14 06:47:29 51°13.68 2°55.887 22.7852 0.166426 0.860359 37.096947
2009-07-14 06:47:34 51°13.681 2°55.88 22.7907 0.166426 0.860359 37.096947
2009-07-14 06:47:38 51°13.682 2°55.875 22.79 0.16375 0.845876 37.131771
2009-07-14 06:47:43 51°13.684 2°55.869 22.8004 0.170749 0.883816 37.131771
2009-07-14 06:47:49 51°13.686 2°55.861 22.7877 0.180115 0.934753 37.096947
2009-07-14 06:47:54 51°13.687 2°55.855 22.8114 0.156854 0.808674 37.096947
2009-07-14 06:47:58 51°13.688 2°55.85 22.8047 0.15356 0.790929 37.131771
2009-07-14 06:48:03 51°13.689 2°55.843 22.8109 0.15356 0.790929 37.131771
2009-07-14 06:48:09 51°13.691 2°55.836 22.81 0.147488 0.758239 37.131771
2009-07-14 06:48:14 51°13.692 2°55.829 22.8116 0.159633 0.823675 37.131771
2009-07-14 06:48:18 51°13.693 2°55.824 22.8127 0.153046 0.788157 37.131771
2009-07-14 06:48:23 51°13.694 2°55.818 22.8129 0.159118 0.820909 37.131771
2009-07-14 06:48:28 51°13.695 2°55.811 22.8081 0.166323 0.859885 37.096947
2009-07-14 06:48:33 51°13.696 2°55.805 22.8109 0.166323 0.859885 37.096947
2009-07-14 06:48:38 51°13.697 2°55.799 22.8079 0.159118 0.820935 37.131771
2009-07-14 06:48:43 51°13.698 2°55.793 22.8055 0.167867 0.868276 37.131771
2009-07-14 06:48:48 51°13.698 2°55.788 22.8089 0.164059 0.847655 37.131771
2009-07-14 06:48:53 51°13.699 2°55.782 22.8049 0.158501 0.817614 37.131771
2009-07-14 06:48:58 51°13.7 2°55.777 22.8012 0.164264 0.848796 37.131771
2009-07-14 06:49:03 51°13.7 2°55.773 22.801 0.164264 0.848796 37.131771
2009-07-14 06:49:08 51°13.701 2°55.769 22.7994 0.15778 0.813751 37.131771
2009-07-14 06:49:13 51°13.701 2°55.766 22.7966 0.16797 0.868875 37.166595
2009-07-14 06:49:18 51°13.701 2°55.763 22.7957 0.165294 0.85438 37.131771
2009-07-14 06:49:23 51°13.701 2°55.761 22.7971 0.168381 0.87112 37.166595
2009-07-14 06:49:27 51°13.702 2°55.76 22.7975 0.1655 0.855522 37.131771
2009-07-14 06:49:32 51°13.702 2°55.759 22.8003 0.1655 0.855522 37.131771
2009-07-14 06:49:37 51°13.702 2°55.759 22.8004 0.164161 0.848266 37.166595
2009-07-14 06:49:42 51°13.702 2°55.758 22.8014 0.165397 0.854951 37.131771
2009-07-14 06:49:47 51°13.702 2°55.758 22.8011 0.166838 0.862768 37.166595
2009-07-14 06:49:52 51°13.703 2°55.758 22.7965 0.151193 0.77828 37.166595
2009-07-14 06:49:57 51°13.703 2°55.758 22.7945 0.150164 0.772728 37.166595
2009-07-14 06:50:02 51°13.703 2°55.759 22.7733 0.150164 0.772728 37.166595
2009-07-14 06:50:06 51°13.703 2°55.758 22.7613 0.133182 0.681656 37.166595
2009-07-14 06:50:11 51°13.703 2°55.757 22.7653 0.143062 0.734535 37.166595
2009-07-14 06:50:16 51°13.703 2°55.756 22.7747 0.119597 0.609308 37.166595
2009-07-14 06:50:21 51°13.702 2°55.754 22.8074 0.147179 0.756652 37.166595
2009-07-14 06:50:26 51°13.701 2°55.752 22.798 0.145224 0.746171 37.166595
2009-07-14 06:50:31 51°13.7 2°55.751 22.7969 0.145224 0.746171 37.166595
2009-07-14 06:50:35 51°13.699 2°55.75 22.8008 0.14862 0.764435 37.166595
2009-07-14 06:50:40 51°13.698 2°55.748 22.8062 0.179806 0.933222 37.166595
2009-07-14 06:50:45 51°13.698 2°55.747 22.8183 0.181247 0.941083 37.166595
2009-07-14 06:50:50 51°13.698 2°55.747 22.819 0.168278 0.870632 37.166595
2009-07-14 06:50:55 51°13.698 2°55.747 22.8202 0.181556 0.94281 37.166595
2009-07-14 06:50:59 51°13.699 2°55.747 22.8315 0.181556 0.94281 37.166595
2009-07-14 06:51:05 51°13.7 2°55.747 22.8334 0.185364 0.963584 37.166595
2009-07-14 06:51:10 51°13.701 2°55.747 22.8331 0.185879 0.966407 37.166595
2009-07-14 06:51:15 51°13.703 2°55.748 22.8475 0.19998 1.043542 37.166595
2009-07-14 06:51:19 51°13.704 2°55.748 22.8477 0.218817 1.147172 37.166595
2009-07-14 06:51:24 51°13.706 2°55.748 22.8416 0.197304 1.028944 37.131771
2009-07-14 06:51:30 51°13.709 2°55.748 22.8412 0.197304 1.028944 37.131771
2009-07-14 06:51:34 51°13.711 2°55.747 22.8446 0.187526 0.975441 37.131771
2009-07-14 06:51:40 51°13.715 2°55.746 22.8458 0.163441 0.844503 37.131771
2009-07-14 06:51:44 51°13.718 2°55.744 22.8549 0.130197 0.66582 37.131771
2009-07-14 06:51:50 51°13.721 2°55.741 22.8562 0.122478 0.624689 37.131771
2009-07-14 06:51:54 51°13.724 2°55.738 22.8387 0.105806 0.536417 37.131771
2009-07-14 06:52:00 51°13.73 2°55.733 22.8108 0.105806 0.536417 37.131771
2009-07-14 06:52:05 51°13.734 2°55.728 22.8174 0.098602 0.498513 37.131771
2009-07-14 06:52:10 51°13.739 2°55.722 22.7858 0.099219 0.501729 37.166595
2009-07-14 06:52:15 51°13.745 2°55.716 22.7874 0.095206 0.480685 37.166595
2009-07-14 06:52:20 51°13.75 2°55.71 22.7868 0.096235 0.486074 37.166595
2009-07-14 06:52:25 51°13.756 2°55.704 22.7767 0.090883 0.458089 37.166595
2009-07-14 06:52:30 51°13.763 2°55.697 22.7559 0.090883 0.458089 37.166595
2009-07-14 06:52:35 51°13.769 2°55.689 22.7584 0.087899 0.442523 37.166595
2009-07-14 06:52:40 51°13.776 2°55.682 22.7762 0.09006 0.453799 37.166595
2009-07-14 06:52:45 51°13.783 2°55.675 22.7961 0.09181 0.46294 37.166595
2009-07-14 06:52:50 51°13.791 2°55.668 22.7807 0.088002 0.44308 37.166595
2009-07-14 06:52:55 51°13.799 2°55.66 22.764 0.085223 0.428607 37.166595
2009-07-14 06:52:59 51°13.806 2°55.654 22.7599 0.085223 0.428607 37.166595
2009-07-14 06:53:05 51°13.816 2°55.645 22.7849 0.086458 0.435047 37.201419
2009-07-14 06:53:10 51°13.825 2°55.638 22.7821 0.089237 0.449533 37.201419
2009-07-14 06:53:15 51°13.834 2°55.631 22.7936 0.091295 0.460296 37.166595
2009-07-14 06:53:20 51°13.843 2°55.624 22.7947 0.089854 0.452782 37.201419
2009-07-14 06:53:25 51°13.852 2°55.616 22.7953 0.08368 0.420628 37.166595
2009-07-14 06:53:30 51°13.862 2°55.609 22.7962 0.08368 0.420628 37.166595
2009-07-14 06:53:35 51°13.871 2°55.602 22.8054 0.089648 0.451715 37.201419
2009-07-14 06:53:40 51°13.881 2°55.595 22.8099 0.092839 0.468385 37.166595
2009-07-14 06:53:45 51°13.891 2°55.587 22.8068 0.085944 0.432409 37.166595
2009-07-14 06:53:50 51°13.901 2°55.58 22.8039 0.088208 0.444202 37.166595
2009-07-14 06:53:54 51°13.909 2°55.574 22.8105 0.088825 0.447421 37.201419
2009-07-14 06:54:00 51°13.921 2°55.566 22.8071 0.088825 0.447421 37.201419
2009-07-14 06:54:05 51°13.931 2°55.558 22.793 0.085738 0.431338 37.201419
2009-07-14 06:54:10 51°13.941 2°55.551 22.7966 0.089237 0.449568 37.201419
2009-07-14 06:54:14 51°13.949 2°55.545 22.8083 0.091295 0.460318 37.201419
2009-07-14 06:54:20 51°13.961 2°55.536 22.8202 0.09078 0.457646 37.201419
2009-07-14 06:54:25 51°13.971 2°55.529 22.8011 0.085532 0.430274 37.201419
2009-07-14 06:54:30 51°13.982 2°55.521 22.8043 0.085532 0.430274 37.201419
2009-07-14 06:54:34 51°13.99 2°55.515 22.8159 0.092736 0.467869 37.201419
2009-07-14 06:54:40 51°14.002 2°55.506 22.1802 0.092324 0.465725 37.201419
2009-07-14 06:54:45 51°14.012 2°55.499 21.4955 2.195667 13.578449 29.157062
2009-07-14 06:54:50 51°14.022 2°55.491 21.2908 2.34922 14.674704 27.58998
2009-07-14 06:54:55 51°14.032 2°55.483 21.0031 4.186164 27.798857 29.923192
2009-07-14 06:55:00 51°14.043 2°55.475 20.7571 4.186164 27.798857 29.923192
2009-07-14 06:55:04 51°14.051 2°55.468 20.6445 4.714248 31.932535 27.276563
2009-07-14 06:55:10 51°14.064 2°55.458 20.6045 4.783953 32.669679 20.520697
2009-07-14 06:55:14 51°14.072 2°55.451 20.4973 4.764742 32.855298 17.316884
2009-07-14 06:55:20 51°14.085 2°55.441 20.3946 4.714991 32.707976 16.724875
2009-07-14 06:55:24 51°14.093 2°55.434 20.3274 4.611553 32.161217 16.446283
2009-07-14 06:55:30 51°14.106 2°55.424 20.2724 4.611553 32.161217 16.446283
2009-07-14 06:55:35 51°14.117 2°55.415 20.2162 4.559014 31.933231 16.028394
2009-07-14 06:55:40 51°14.128 2°55.407 20.1769 4.511568 31.793822 15.680154
2009-07-14 06:55:45 51°14.138 2°55.398 20.1297 4.485823 31.723007 15.506033
2009-07-14 06:55:50 51°14.149 2°55.389 20.0608 4.459145 31.628026 15.366737
2009-07-14 06:55:55 51°14.16 2°55.379 20.0428 4.442329 31.584293 15.366737
2009-07-14 06:56:00 51°14.17 2°55.369 20.0383 4.442329 31.584293 15.366737
2009-07-14 06:56:05 51°14.181 2°55.359 19.9806 4.425618 31.530451 15.401561
2009-07-14 06:56:10 51°14.191 2°55.349 19.9736 4.409322 31.469514 15.401561
2009-07-14 06:56:14 51°14.199 2°55.34 19.935 3.686907 25.836948 15.575681
2009-07-14 06:56:20 51°14.211 2°55.326 19.9183 4.397283 31.478399 15.749802
2009-07-14 06:56:25 51°14.221 2°55.314 19.8919 4.38296 31.404407 15.99357
2009-07-14 06:56:30 51°14.23 2°55.302 19.8885 4.38296 31.404407 15.99357
2009-07-14 06:56:34 51°14.238 2°55.291 19.8686 4.374969 31.383299 16.237338
2009-07-14 06:56:40 51°14.248 2°55.275 19.8731 4.365109 31.333448 16.620403
2009-07-14 06:56:45 51°14.257 2°55.261 19.8509 4.36376 31.348952 16.933819
2009-07-14 06:56:50 51°14.265 2°55.247 19.8419 4.359713 31.348554 17.351708
2009-07-14 06:56:54 51°14.272 2°55.235 19.8457 4.354939 31.336014 17.630301
2009-07-14 06:57:00 51°14.282 2°55.217 19.8157 4.354939 31.336014 17.630301
2009-07-14 06:57:05 51°14.29 2°55.202 19.8258 4.352033 31.329874 18.013365
2009-07-14 06:57:10 51°14.299 2°55.186 19.8307 4.347571 31.31121 18.291958
2009-07-14 06:57:14 51°14.306 2°55.174 19.8053 4.344354 31.296239 18.500902
2009-07-14 06:57:20 51°14.315 2°55.155 19.7809 4.343835 31.303548 18.74467
2009-07-14 06:57:24 51°14.322 2°55.142 19.7785 4.34342 31.310549 18.953615
2009-07-14 06:57:30 51°14.332 2°55.122 19.7601 4.34342 31.310549 18.953615
2009-07-14 06:57:34 51°14.339 2°55.11 19.7683 4.342175 31.30972 19.127735
2009-07-14 06:57:40 51°14.349 2°55.09 19.7565 4.340618 31.306959 19.301855
2009-07-14 06:57:44 51°14.355 2°55.077 19.767 4.336052 31.276505 19.475975
2009-07-14 06:57:50 51°14.365 2°55.057 19.7469 4.339062 31.31283 19.650096
2009-07-14 06:57:54 51°14.372 2°55.044 19.731 4.337713 31.313472 19.789392
2009-07-14 06:58:00 51°14.382 2°55.024 19.7425 4.337713 31.313472 19.789392
2009-07-14 06:58:05 51°14.392 2°55.009 19.7303 4.337817 31.323526 19.928688
2009-07-14 06:58:10 51°14.401 2°54.994 19.736 4.338751 31.341437 19.998336
2009-07-14 06:58:15 51°14.411 2°54.979 19.7362 4.339062 31.347987 20.102808
2009-07-14 06:58:20 51°14.421 2°54.963 19.7459 4.340308 31.364964 20.242105
2009-07-14 06:58:25 51°14.431 2°54.948 19.7391 4.341865 31.386196 20.346577
2009-07-14 06:58:30 51°14.441 2°54.933 19.743 4.341865 31.386196 20.346577
2009-07-14 06:58:34 51°14.449 2°54.921 19.7374 4.34145 31.38747 20.520697
2009-07-14 06:58:40 51°14.461 2°54.902 19.7361 4.34228 31.39938 20.625169
2009-07-14 06:58:45 51°14.471 2°54.885 19.7265 4.340101 31.385829 20.694817
2009-07-14 06:58:50 51°14.481 2°54.868 19.7284 4.34062 31.390599 20.694817
2009-07-14 06:58:54 51°14.489 2°54.855 19.725 4.337506 31.366034 20.834113
2009-07-14 06:59:00 51°14.502 2°54.834 19.7238 4.337506 31.366034 20.834113
2009-07-14 06:59:05 51°14.513 2°54.817 19.7198 4.33927 31.38086 20.903762
2009-07-14 06:59:10 51°14.524 2°54.8 19.7283 4.336364 31.35855 20.97341
2009-07-14 06:59:14 51°14.533 2°54.786 19.7252 4.336883 31.365052 21.008234
2009-07-14 06:59:20 51°14.547 2°54.766 19.7216 4.332421 31.330748 21.14753
2009-07-14 06:59:25 51°14.559 2°54.749 19.7211 4.33844 31.382831 21.252002
2009-07-14 06:59:30 51°14.57 2°54.731 19.7209 4.33844 31.382831 21.252002
2009-07-14 06:59:34 51°14.579 2°54.718 19.7113 4.339478 31.392951 21.32165
2009-07-14 06:59:40 51°14.594 2°54.697 19.7031 4.339582 31.397263 21.391298
2009-07-14 06:59:45 51°14.606 2°54.681 19.6985 4.339582 31.397842 21.460946
2009-07-14 06:59:50 51°14.619 2°54.665 19.6985 4.339893 31.400937 21.530595
2009-07-14 06:59:55 51°14.631 2°54.65 19.6979 4.34062 31.406807 21.635067
2009-07-14 06:59:59 51°14.642 2°54.638 19.6847 4.34062 31.406807 21.635067
2009-07-14 07:00:05 51°14.658 2°54.621 19.6562 4.341554 31.415513 21.669891
2009-07-14 07:00:10 51°14.671 2°54.607 19.6436 4.34145 31.416992 21.704715
2009-07-14 07:00:15 51°14.685 2°54.594 19.6448 4.34145 31.423368 21.878835
2009-07-14 07:00:20 51°14.699 2°54.58 19.6445 4.341866 31.430782 21.878835
2009-07-14 07:00:25 51°14.712 2°54.565 19.6534 4.343007 31.443493 22.052955
2009-07-14 07:00:30 51°14.725 2°54.552 19.6498 4.343007 31.443493 22.052955
2009-07-14 07:00:35 51°14.739 2°54.538 19.6322 4.345291 31.466019 22.366372
2009-07-14 07:00:40 51°14.753 2°54.525 19.6305 4.352141 31.531316 22.853909
2009-07-14 07:00:45 51°14.767 2°54.511 19.6097 4.366153 31.656416 22.888733
2009-07-14 07:00:50 51°14.781 2°54.498 19.5925 4.369371 31.689502 23.097677
2009-07-14 07:00:54 51°14.791 2°54.487 19.5637 4.369163 31.690163 23.376269
2009-07-14 07:00:59 51°14.805 2°54.473 19.5333 4.369163 31.690163 23.376269
2009-07-14 07:01:05 51°14.822 2°54.458 19.5248 4.369163 31.69192 23.620038
2009-07-14 07:01:10 51°14.836 2°54.447 19.506 4.371032 31.713507 23.202149
2009-07-14 07:01:14 51°14.848 2°54.438 19.4911 4.378505 31.779373 23.411093
2009-07-14 07:01:19 51°14.862 2°54.426 19.4896 4.392206 31.9023 23.828982
2009-07-14 07:01:25 51°14.879 2°54.413 19.4712 4.40352 32.007767 24.212047
2009-07-14 07:01:30 51°14.894 2°54.401 19.4588 4.40352 32.007767 24.212047
2009-07-14 07:01:34 51°14.905 2°54.393 19.4452 4.419299 32.154424 24.629935
2009-07-14 07:01:40 51°14.923 2°54.379 19.4467 4.436116 32.304996 24.943352
2009-07-14 07:01:44 51°14.934 2°54.37 19.4416 4.447535 32.417214 25.117472
2009-07-14 07:01:50 51°14.952 2°54.357 19.4316 4.454698 32.489463 25.326416
2009-07-14 07:01:54 51°14.963 2°54.348 19.4341 4.463107 32.569539 25.535361
2009-07-14 07:02:00 51°14.98 2°54.334 19.4066 4.463107 32.569539 25.535361
2009-07-14 07:02:04 51°14.992 2°54.325 19.3922 4.465495 32.600531 25.779129
2009-07-14 07:02:10 51°15.009 2°54.311 19.3871 4.478161 32.716124 25.918425
2009-07-14 07:02:15 51°15.024 2°54.3 19.3918 4.474735 32.69664 25.953249
2009-07-14 07:02:20 51°15.038 2°54.288 19.3882 4.48574 32.793915 26.022897
2009-07-14 07:02:25 51°15.053 2°54.277 19.3871 4.487816 32.814559 26.092546
2009-07-14 07:02:30 51°15.067 2°54.265 19.3689 4.487816 32.814559 26.092546
2009-07-14 07:02:35 51°15.081 2°54.253 19.3739 4.489166 32.833541 26.30149
2009-07-14 07:02:40 51°15.095 2°54.241 19.3742 4.498718 32.923347 26.405962
2009-07-14 07:02:44 51°15.107 2°54.231 19.3619 4.503805 32.975444 26.371138
2009-07-14 07:02:50 51°15.123 2°54.216 19.3579 4.506297 33.002005 26.336314
2009-07-14 07:02:54 51°15.135 2°54.207 19.3554 4.50827 33.023093 26.336314
2009-07-14 07:03:00 51°15.151 2°54.192 19.3384 4.50827 33.023093 26.336314
2009-07-14 07:03:05 51°15.165 2°54.18 19.3315 4.512423 33.062064 26.47561
2009-07-14 07:03:10 51°15.179 2°54.168 19.3233 4.514915 33.088662 26.440786
2009-07-14 07:03:14 51°15.191 2°54.158 19.305 4.516472 33.106373 26.580082
2009-07-14 07:03:20 51°15.207 2°54.144 19.303 4.520314 33.142831 26.614906
2009-07-14 07:03:25 51°15.221 2°54.132 19.3033 4.52291 33.167842 26.614906
2009-07-14 07:03:30 51°15.235 2°54.12 19.2989 4.52291 33.167842 26.614906
2009-07-14 07:03:34 51°15.246 2°54.11 19.2943 4.525713 33.195804 26.823851
2009-07-14 07:03:40 51°15.263 2°54.096 19.2937 4.531009 33.249825 26.928323
2009-07-14 07:03:45 51°15.277 2°54.084 19.2968 4.538692 33.322271 26.997971
2009-07-14 07:03:50 51°15.291 2°54.072 19.2891 4.54378 33.372188 27.067619
2009-07-14 07:03:54 51°15.302 2°54.063 19.2903 4.548557 33.417704 27.032795
2009-07-14 07:04:00 51°15.319 2°54.049 19.3 4.548557 33.417704 27.032795
2009-07-14 07:04:04 51°15.33 2°54.04 19.2912 4.548764 33.424408 27.102443
2009-07-14 07:04:10 51°15.348 2°54.026 19.2883 4.554475 33.477021 27.032795
2009-07-14 07:04:14 51°15.359 2°54.017 19.2923 4.555721 33.489779 27.067619
2009-07-14 07:04:20 51°15.376 2°54.004 19.2874 4.556864 33.501685 26.997971
2009-07-14 07:04:24 51°15.387 2°53.995 19.2808 4.558214 33.515303 26.928323
2009-07-14 07:04:30 51°15.405 2°53.981 19.2821 4.558214 33.515303 26.928323
2009-07-14 07:04:34 51°15.416 2°53.972 19.2811 4.558837 33.521058 26.893499
2009-07-14 07:04:40 51°15.433 2°53.958 19.2836 4.559356 33.526586 26.823851
2009-07-14 07:04:45 51°15.447 2°53.947 19.2807 4.56029 33.53428 26.858675
2009-07-14 07:04:50 51°15.461 2°53.936 19.277 4.561121 33.543001 26.719379
2009-07-14 07:04:55 51°15.475 2°53.924 19.2787 4.562471 33.555372 26.754203
2009-07-14 07:05:00 51°15.489 2°53.912 19.278 4.562471 33.555372 26.754203
2009-07-14 07:05:05 51°15.504 2°53.9 19.2773 4.563509 33.565806 26.754203
2009-07-14 07:05:10 51°15.518 2°53.889 19.2791 4.564236 33.573676 26.754203
2009-07-14 07:05:14 51°15.529 2°53.88 19.2763 4.564859 33.580063 26.789027
2009-07-14 07:05:20 51°15.546 2°53.865 19.2743 4.565794 33.588389 26.858675
2009-07-14 07:05:25 51°15.561 2°53.853 19.2755 4.56704 33.599911 26.858675
2009-07-14 07:05:30 51°15.575 2°53.842 19.2753 4.56704 33.599911 26.858675
2009-07-14 07:05:34 51°15.586 2°53.832 19.2733 4.567974 33.609496 26.823851
2009-07-14 07:05:40 51°15.603 2°53.818 19.2738 4.569117 33.618906 26.858675
2009-07-14 07:05:45 51°15.618 2°53.806 19.28 4.569947 33.627009 26.858675
2009-07-14 07:05:50 51°15.632 2°53.795 19.2755 4.570882 33.634709 26.858675
2009-07-14 07:05:54 51°15.644 2°53.786 19.2794 4.571609 33.641958 26.893499
2009-07-14 07:06:00 51°15.661 2°53.772 19.2749 4.571609 33.641958 26.893499
2009-07-14 07:06:05 51°15.676 2°53.761 19.2775 4.572232 33.647721 26.928323
2009-07-14 07:06:10 51°15.69 2°53.75 19.28 4.572959 33.653711 26.858675
2009-07-14 07:06:14 51°15.702 2°53.743 19.2831 4.573374 33.657764 26.823851
2009-07-14 07:06:20 51°15.72 2°53.732 19.2798 4.573686 33.659072 26.963147
2009-07-14 07:06:25 51°15.735 2°53.725 19.2792 4.574101 33.662495 26.893499
2009-07-14 07:06:30 51°15.75 2°53.717 19.2844 4.574101 33.662495 26.893499
2009-07-14 07:06:35 51°15.766 2°53.71 19.2786 4.574516 33.665288 26.754203
2009-07-14 07:06:39 51°15.778 2°53.705 19.2812 4.574724 33.66763 26.858675
2009-07-14 07:06:45 51°15.797 2°53.698 19.2815 4.574828 33.667226 26.893499
2009-07-14 07:06:50 51°15.812 2°53.692 19.2834 4.575243 33.670019 26.893499
2009-07-14 07:06:55 51°15.828 2°53.686 19.2798 4.575555 33.672586 26.858675
2009-07-14 07:06:59 51°15.841 2°53.682 19.2799 4.575555 33.672586 26.858675
2009-07-14 07:07:05 51°15.86 2°53.676 19.281 4.575762 33.674298 26.754203
2009-07-14 07:07:10 51°15.875 2°53.671 19.2837 4.57597 33.676009 26.893499
2009-07-14 07:07:14 51°15.888 2°53.667 19.2838 4.576074 33.676235 26.963147
2009-07-14 07:07:19 51°15.903 2°53.661 19.2854 4.576178 33.676461 27.032795
2009-07-14 07:07:24 51°15.919 2°53.654 19.2867 4.576385 33.678802 27.137267
2009-07-14 07:07:30 51°15.937 2°53.644 19.2902 4.576385 33.678802 27.137267
2009-07-14 07:07:34 51°15.949 2°53.638 19.292 4.576489 33.680288 27.346212
2009-07-14 07:07:40 51°15.967 2°53.625 19.2971 4.576489 33.680288 27.381036
2009-07-14 07:07:45 51°15.981 2°53.616 19.2914 4.576281 33.677947 27.555156
2009-07-14 07:07:50 51°15.996 2°53.604 19.2937 4.57597 33.674749 27.729276
2009-07-14 07:07:55 51°16.01 2°53.593 19.2897 4.575762 33.671778 28.042693
2009-07-14 07:08:00 51°16.025 2°53.581 19.2959 4.575762 33.671778 28.042693
2009-07-14 07:08:05 51°16.039 2°53.569 19.2974 4.575451 33.668581 28.077517
2009-07-14 07:08:10 51°16.053 2°53.557 19.2959 4.575243 33.66561 28.251637
2009-07-14 07:08:15 51°16.067 2°53.544 19.2946 4.574724 33.659443 28.390933
2009-07-14 07:08:20 51°16.081 2°53.531 19.299 4.57462 33.657328 28.669526
2009-07-14 07:08:25 51°16.095 2°53.518 19.294 4.574412 33.655617 28.913294
2009-07-14 07:08:30 51°16.109 2°53.504 19.2956 4.574412 33.655617 28.913294
2009-07-14 07:08:35 51°16.122 2°53.49 19.2947 4.573997 33.652195 28.87847
2009-07-14 07:08:39 51°16.133 2°53.479 19.2928 4.573789 33.649226 29.122238
2009-07-14 07:08:45 51°16.15 2°53.463 19.2926 4.573581 33.646885 29.191886
2009-07-14 07:08:50 51°16.164 2°53.449 19.2944 4.573374 33.645174 29.400831
2009-07-14 07:08:55 51°16.178 2°53.436 19.2924 4.573062 33.642608 29.644599
2009-07-14 07:09:00 51°16.192 2°53.422 19.2917 4.573062 33.642608 29.644599
2009-07-14 07:09:05 51°16.206 2°53.409 19.2931 4.572751 33.640671 29.783895
2009-07-14 07:09:10 51°16.22 2°53.396 19.2903 4.572439 33.638105 29.923192
2009-07-14 07:09:15 51°16.234 2°53.382 19.2908 4.572335 33.63662 30.16696
2009-07-14 07:09:19 51°16.245 2°53.372 19.2913 4.572232 33.637023 30.097312
2009-07-14 07:09:25 51°16.262 2°53.355 19.2872 4.572232 33.637023 30.306256
2009-07-14 07:09:30 51°16.276 2°53.342 19.2845 4.572232 33.637023 30.306256
2009-07-14 07:09:35 51°16.29 2°53.328 19.2858 4.572232 33.637652 30.34108
2009-07-14 07:09:39 51°16.302 2°53.318 19.2875 4.572128 33.636796 30.445552
2009-07-14 07:09:44 51°16.316 2°53.304 19.2876 4.572335 33.639137 30.375904
2009-07-14 07:09:50 51°16.333 2°53.286 19.2856 4.572439 33.640621 30.375904
2009-07-14 07:09:54 51°16.344 2°53.275 19.2841 4.572647 33.642962 30.410728
2009-07-14 07:10:00 51°16.361 2°53.257 19.2821 4.572647 33.642962 30.410728
2009-07-14 07:10:05 51°16.375 2°53.242 19.2794 4.572959 33.646787 30.480376
2009-07-14 07:10:10 51°16.389 2°53.227 19.2789 4.573062 33.648272 30.480376
2009-07-14 07:10:14 51°16.4 2°53.215 19.2772 4.573062 33.648901 30.375904
2009-07-14 07:10:20 51°16.417 2°53.197 19.2781 4.572751 33.646964 30.445552
2009-07-14 07:10:25 51°16.432 2°53.185 19.2781 4.572439 33.645026 30.445552
2009-07-14 07:10:30 51°16.446 2°53.172 19.2728 4.572439 33.645026 30.445552
2009-07-14 07:10:35 51°16.461 2°53.16 19.2705 4.572647 33.647997 30.410728
2009-07-14 07:10:40 51°16.476 2°53.149 19.2651 4.573582 33.656327 30.410728
2009-07-14 07:10:45 51°16.491 2°53.138 19.2586 4.574412 33.665062 30.480376
2009-07-14 07:10:50 51°16.507 2°53.127 19.2545 4.575658 33.675962 30.410728
2009-07-14 07:10:55 51°16.522 2°53.116 19.2567 4.575762 33.677448 30.410728
2009-07-14 07:11:00 51°16.537 2°53.106 19.2485 4.575762 33.677448 30.410728
2009-07-14 07:11:05 51°16.553 2°53.094 19.2492 4.57462 33.670554 30.201784
2009-07-14 07:11:10 51°16.568 2°53.084 19.2419 4.577839 33.69898 30.271432
2009-07-14 07:11:15 51°16.583 2°53.073 19.2399 4.57867 33.708982 30.236608
2009-07-14 07:11:19 51°16.595 2°53.064 19.2403 4.579085 33.7143 30.132136
2009-07-14 07:11:25 51°16.613 2°53.051 19.2386 4.579916 33.724937 30.097312
2009-07-14 07:11:30 51°16.628 2°53.039 19.2342 4.579916 33.724937 30.097312
2009-07-14 07:11:35 51°16.643 2°53.028 19.2328 4.580332 33.732152 29.99284
2009-07-14 07:11:40 51°16.658 2°53.017 19.2298 4.580435 33.736798 29.958016
2009-07-14 07:11:45 51°16.673 2°53.006 19.2263 4.58137 33.748931 29.923192
2009-07-14 07:11:50 51°16.689 2°52.995 19.2252 4.581682 33.753397 29.783895
2009-07-14 07:11:54 51°16.701 2°52.986 19.2237 4.581682 33.754662 29.853543
2009-07-14 07:12:00 51°16.719 2°52.973 19.2204 4.581682 33.754662 29.853543
2009-07-14 07:12:05 51°16.734 2°52.961 19.2206 4.581993 33.759762 29.783895
2009-07-14 07:12:10 51°16.749 2°52.95 19.2191 4.582201 33.764005 29.714247
2009-07-14 07:12:14 51°16.761 2°52.941 19.2171 4.582513 33.769107 29.888367
2009-07-14 07:12:20 51°16.779 2°52.927 19.2152 4.582616 33.772495 29.783895
2009-07-14 07:12:25 51°16.793 2°52.915 19.2181 4.58272 33.77525 29.749071
2009-07-14 07:12:30 51°16.808 2°52.904 19.2134 4.58272 33.77525 29.749071
2009-07-14 07:12:34 51°16.819 2°52.894 19.2148 4.582928 33.779497 29.679423
2009-07-14 07:12:40 51°16.837 2°52.88 19.214 4.583136 33.78311 29.749071
2009-07-14 07:12:45 51°16.852 2°52.868 19.2116 4.583343 33.786091 29.714247
2009-07-14 07:12:50 51°16.866 2°52.856 19.2152 4.583551 33.789073 29.749071
2009-07-14 07:12:54 51°16.878 2°52.847 19.2119 4.583759 33.792054 29.679423
2009-07-14 07:13:00 51°16.896 2°52.833 19.2127 4.583759 33.792054 29.679423
2009-07-14 07:13:05 51°16.911 2°52.821 19.2103 4.583863 33.794178 29.679423
2009-07-14 07:13:10 51°16.926 2°52.809 19.2119 4.583967 33.796303 29.609775
2009-07-14 07:13:15 51°16.94 2°52.797 19.2131 4.58407 33.797794 29.540127
2009-07-14 07:13:20 51°16.955 2°52.786 19.2134 4.584174 33.799285 29.540127
2009-07-14 07:13:24 51°16.967 2°52.776 19.2108 4.584278 33.800143 29.400831
2009-07-14 07:13:30 51°16.985 2°52.763 19.211 4.584278 33.800143 29.400831
2009-07-14 07:13:34 51°16.997 2°52.754 19.2086 4.584486 33.802491 29.296359
2009-07-14 07:13:40 51°17.015 2°52.74 19.2033 4.584694 33.80484 29.400831
2009-07-14 07:13:45 51°17.03 2°52.728 19.2054 4.584901 33.806555 29.331183
2009-07-14 07:13:50 51°17.045 2°52.716 19.2017 4.585109 33.80827 29.22671
2009-07-14 07:13:55 51°17.06 2°52.705 19.201 4.585317 33.810619 29.157062
2009-07-14 07:14:00 51°17.075 2°52.693 19.203 4.585317 33.810619 29.157062
2009-07-14 07:14:05 51°17.089 2°52.681 19.1993 4.58459 33.80525 29.157062
2009-07-14 07:14:10 51°17.104 2°52.669 19.1949 4.585836 33.817444 29.122238
2009-07-14 07:14:15 51°17.119 2°52.657 19.2009 4.586147 33.821285 29.017766
2009-07-14 07:14:19 51°17.131 2°52.648 19.1927 4.586355 33.824269 28.948118
2009-07-14 07:14:25 51°17.149 2°52.634 19.1915 4.586771 33.829603 28.87847
2009-07-14 07:14:30 51°17.164 2°52.623 19.1912 4.586771 33.829603 28.87847
2009-07-14 07:14:35 51°17.179 2°52.611 19.1887 4.587186 33.833669 28.739174
2009-07-14 07:14:40 51°17.194 2°52.6 19.1839 4.587705 33.839862 28.739174
2009-07-14 07:14:45 51°17.21 2°52.589 19.1793 4.588224 33.844152 28.70435
2009-07-14 07:14:50 51°17.225 2°52.577 19.1772 4.588744 33.850346 28.495405
2009-07-14 07:14:55 51°17.24 2°52.566 19.1728 4.589159 33.856318 28.565053
2009-07-14 07:15:00 51°17.255 2°52.555 19.171 4.589159 33.856318 28.565053
2009-07-14 07:15:05 51°17.27 2°52.544 19.1711 4.589471 33.859528 28.425757
2009-07-14 07:15:10 51°17.285 2°52.532 19.1674 4.589886 33.865501 28.356109
2009-07-14 07:15:15 51°17.3 2°52.521 19.1668 4.590717 33.874909 28.181989
2009-07-14 07:15:19 51°17.313 2°52.512 19.1683 4.591444 33.88346 28.147165
2009-07-14 07:15:25 51°17.331 2°52.499 19.1627 4.592378 33.894366 28.077517
2009-07-14 07:15:30 51°17.346 2°52.487 19.1598 4.592378 33.894366 28.077517
2009-07-14 07:15:35 51°17.361 2°52.475 19.1586 4.593209 33.904415 27.973045
2009-07-14 07:15:40 51°17.376 2°52.464 19.1585 4.593936 33.912335 27.903396
2009-07-14 07:15:45 51°17.39 2°52.452 19.1591 4.594455 33.919175 27.868572
2009-07-14 07:15:50 51°17.406 2°52.442 19.1558 4.595078 33.925601 27.798924
2009-07-14 07:15:55 51°17.421 2°52.432 19.1534 4.595598 33.931169 27.729276
2009-07-14 07:16:00 51°17.436 2°52.422 19.1449 4.595598 33.931169 27.729276
2009-07-14 07:16:05 51°17.452 2°52.414 19.1458 4.596636 33.94167 27.624804
2009-07-14 07:16:10 51°17.468 2°52.405 19.1465 4.597882 33.95389 27.58998
2009-07-14 07:16:14 51°17.481 2°52.399 19.143 4.598505 33.96032 27.520332
2009-07-14 07:16:20 51°17.5 2°52.392 19.1365 4.599128 33.96675 27.346212
2009-07-14 07:16:25 51°17.516 2°52.386 19.1327 4.600063 33.977034 27.241739
2009-07-14 07:16:30 51°17.532 2°52.382 19.1304 4.600063 33.977034 27.241739
2009-07-14 07:16:34 51°17.546 2°52.378 19.1218 4.600998 33.986683 27.206915
2009-07-14 07:16:40 51°17.565 2°52.374 19.1165 4.601725 33.995891 27.172091
2009-07-14 07:16:45 51°17.582 2°52.37 19.1163 4.60214 34.001244 27.102443
2009-07-14 07:16:50 51°17.599 2°52.367 19.1152 4.602556 34.00596 27.102443
2009-07-14 07:16:54 51°17.612 2°52.364 19.1103 4.603386 34.016671 26.893499
2009-07-14 07:17:00 51°17.632 2°52.361 19.1039 4.603386 34.016671 26.893499
2009-07-14 07:17:05 51°17.649 2°52.358 19.1065 4.60401 34.025665 26.823851
2009-07-14 07:17:10 51°17.665 2°52.356 19.1028 4.604737 34.0368 26.684555
2009-07-14 07:17:15 51°17.682 2°52.353 19.1003 4.60536 34.046439 26.614906
2009-07-14 07:17:20 51°17.699 2°52.352 19.0935 4.605879 34.05394 26.545258
2009-07-14 07:17:25 51°17.715 2°52.35 19.094 4.606294 34.059943 26.47561
2009-07-14 07:17:30 51°17.732 2°52.349 19.0832 4.606294 34.059943 26.47561
2009-07-14 07:17:34 51°17.746 2°52.348 19.0828 4.60671 34.066586 26.371138
2009-07-14 07:17:40 51°17.766 2°52.346 19.0765 4.607125 34.073231 26.405962
2009-07-14 07:17:45 51°17.783 2°52.345 19.0751 4.607437 34.078376 26.30149
2009-07-14 07:17:50 51°17.799 2°52.343 19.0675 4.607956 34.085885 26.266666
2009-07-14 07:17:55 51°17.816 2°52.342 19.0649 4.608372 34.093175 26.197018
2009-07-14 07:18:00 51°17.833 2°52.34 19.0615 4.608372 34.093175 26.197018
2009-07-14 07:18:05 51°17.85 2°52.338 19.0584 4.609203 34.103911 26.12737
2009-07-14 07:18:10 51°17.866 2°52.337 19.0498 4.609826 34.112927 25.918425
2009-07-14 07:18:15 51°17.883 2°52.335 19.0511 4.610345 34.120443 25.988073
2009-07-14 07:18:20 51°17.9 2°52.333 19.0499 4.610864 34.129245 25.848777
2009-07-14 07:18:25 51°17.917 2°52.33 19.0428 4.61128 34.136545 25.813953
2009-07-14 07:18:30 51°17.933 2°52.328 19.0415 4.61128 34.136545 25.813953
2009-07-14 07:18:34 51°17.947 2°52.327 19.036 4.611591 34.143629 25.709481
2009-07-14 07:18:40 51°17.967 2°52.324 19.0301 4.612214 34.152013 25.500537
2009-07-14 07:18:45 51°17.984 2°52.322 19.0281 4.612838 34.162329 25.430889
2009-07-14 07:18:50 51°18 2°52.32 19.0247 4.613045 34.16727 25.36124
2009-07-14 07:18:54 51°18.014 2°52.318 19.0212 4.613357 34.173075 25.326416
2009-07-14 07:19:00 51°18.034 2°52.315 19.0195 4.613357 34.173075 25.326416
2009-07-14 07:19:05 51°18.05 2°52.312 19.0142 4.613669 34.177592 25.18712
2009-07-14 07:19:10 51°18.067 2°52.309 19.0079 4.61398 34.184042 25.256768
2009-07-14 07:19:14 51°18.08 2°52.307 19.002 4.614292 34.189205 25.152296
2009-07-14 07:19:20 51°18.1 2°52.304 18.9954 4.6145 34.196085 25.117472
2009-07-14 07:19:25 51°18.117 2°52.301 18.9914 4.614707 34.201678 25.152296
2009-07-14 07:19:30 51°18.134 2°52.299 18.9862 4.614707 34.201678 25.152296
2009-07-14 07:19:34 51°18.147 2°52.297 18.9805 4.614915 34.206627 24.978176
2009-07-14 07:19:40 51°18.168 2°52.293 18.9777 4.615331 34.213302 24.873704
2009-07-14 07:19:45 51°18.184 2°52.29 18.9753 4.615746 34.221269 24.83888
2009-07-14 07:19:50 51°18.201 2°52.288 18.975 4.616162 34.23053 24.804056
2009-07-14 07:19:54 51°18.215 2°52.286 18.9682 4.616369 34.236131 24.699583
2009-07-14 07:20:00 51°18.235 2°52.283 18.9657 4.616369 34.236131 24.699583
2009-07-14 07:20:04 51°18.249 2°52.28 18.9649 4.616681 34.243888 24.664759
2009-07-14 07:20:10 51°18.269 2°52.277 18.9616 4.616785 34.251214 24.664759
2009-07-14 07:20:14 51°18.282 2°52.275 18.9626 4.616681 34.254876 24.699583
2009-07-14 07:20:20 51°18.302 2°52.271 18.9605 4.616681 34.258109 24.664759
2009-07-14 07:20:25 51°18.319 2°52.269 18.9534 4.616681 34.260696 24.629935
2009-07-14 07:20:30 51°18.336 2°52.266 18.9531 4.616681 34.260696 24.629935
2009-07-14 07:20:35 51°18.353 2°52.265 18.95 4.616785 34.264148 24.455815
2009-07-14 07:20:40 51°18.37 2°52.263 18.9454 4.616785 34.267383 24.560287
2009-07-14 07:20:44 51°18.383 2°52.261 18.9425 4.616681 34.269108 24.525463
2009-07-14 07:20:50 51°18.404 2°52.259 18.9428 4.616578 34.270185 24.490639
2009-07-14 07:20:55 51°18.42 2°52.257 18.9394 4.616578 34.27148 24.525463
2009-07-14 07:21:00 51°18.437 2°52.257 18.935 4.616578 34.27148 24.525463
2009-07-14 07:21:05 51°18.454 2°52.255 18.9328 4.616578 34.274069 24.455815
2009-07-14 07:21:10 51°18.471 2°52.254 18.926 4.616682 34.278171 24.420991
2009-07-14 07:21:14 51°18.484 2°52.254 18.922 4.616682 34.280761 24.351343
2009-07-14 07:21:20 51°18.504 2°52.253 18.9177 4.616786 34.284864 24.386167
2009-07-14 07:21:25 51°18.521 2°52.253 18.9108 4.616786 34.286808 24.351343
2009-07-14 07:21:30 51°18.538 2°52.252 18.9092 4.616786 34.286808 24.351343
2009-07-14 07:21:34 51°18.551 2°52.253 18.907 4.616889 34.290912 24.351343
2009-07-14 07:21:40 51°18.571 2°52.252 18.9006 4.616993 34.295017 24.281695
2009-07-14 07:21:45 51°18.588 2°52.253 18.8998 4.617201 34.300636 24.212047
2009-07-14 07:21:50 51°18.605 2°52.252 18.899 4.617305 34.305391 24.212047
2009-07-14 07:21:54 51°18.618 2°52.253 18.8958 4.617409 34.310797 24.107575
2009-07-14 07:22:00 51°18.639 2°52.252 18.8948 4.617409 34.310797 24.107575
2009-07-14 07:22:04 51°18.652 2°52.251 18.8929 4.617513 34.316204 24.07275
2009-07-14 07:22:10 51°18.672 2°52.25 18.8939 4.617513 34.3188 24.07275
2009-07-14 07:22:14 51°18.686 2°52.25 18.8901 4.617513 34.323994 24.07275
2009-07-14 07:22:20 51°18.706 2°52.249 18.8881 4.617409 34.325726 24.07275
2009-07-14 07:22:25 51°18.723 2°52.248 18.8885 4.617305 34.327459 24.07275
2009-07-14 07:22:30 51°18.74 2°52.247 18.8836 4.617305 34.327459 24.07275
2009-07-14 07:22:35 51°18.756 2°52.246 18.8819 4.617098 34.328327 24.037926
2009-07-14 07:22:39 51°18.77 2°52.245 18.8841 4.61689 34.328545 24.037926
2009-07-14 07:22:44 51°18.787 2°52.244 18.8847 4.616786 34.328979 24.003102
2009-07-14 07:22:50 51°18.807 2°52.243 18.886 4.616786 34.330279 24.037926
2009-07-14 07:22:54 51°18.82 2°52.243 18.8793 4.616683 34.330713 24.003102
2009-07-14 07:23:00 51°18.84 2°52.242 18.8817 4.616683 34.330713 24.003102
2009-07-14 07:23:04 51°18.854 2°52.241 18.883 4.616579 34.332446 23.933454
2009-07-14 07:23:10 51°18.874 2°52.241 18.8768 4.616475 34.333531 24.003102
2009-07-14 07:23:14 51°18.887 2°52.241 18.8728 4.616371 34.333315 23.968278
2009-07-14 07:23:20 51°18.907 2°52.24 18.8687 4.616163 34.332234 23.968278
2009-07-14 07:23:25 51°18.924 2°52.24 18.8698 4.616163 34.332884 24.003102
2009-07-14 07:23:30 51°18.941 2°52.24 18.8676 4.616163 34.332884 24.003102
2009-07-14 07:23:34 51°18.954 2°52.24 18.8652 4.616163 34.334834 23.89863
2009-07-14 07:23:39 51°18.971 2°52.24 18.8678 4.61606 34.333968 23.933454
2009-07-14 07:23:45 51°18.991 2°52.24 18.8627 4.615956 34.335053 23.89863
2009-07-14 07:23:50 51°19.008 2°52.239 18.8614 4.615748 34.334622 23.863806
2009-07-14 07:23:54 51°19.021 2°52.239 18.8593 4.61554 34.334841 23.89863
2009-07-14 07:23:59 51°19.038 2°52.239 18.86 4.61554 34.334841 23.89863
2009-07-14 07:24:05 51°19.058 2°52.239 18.8585 4.615333 34.33571 23.828982
2009-07-14 07:24:10 51°19.075 2°52.238 18.8621 4.615125 34.33658 23.863806
2009-07-14 07:24:14 51°19.088 2°52.238 18.8591 4.614814 34.335283 23.863806
2009-07-14 07:24:19 51°19.105 2°52.238 18.8573 4.61471 34.335718 23.863806
2009-07-14 07:24:25 51°19.125 2°52.237 18.8612 4.614398 34.335071 23.89863
2009-07-14 07:24:30 51°19.142 2°52.237 18.8612 4.614398 34.335071 23.89863
2009-07-14 07:24:34 51°19.155 2°52.237 18.8607 4.614191 34.333989 23.89863
2009-07-14 07:24:40 51°19.176 2°52.237 18.856 4.613983 34.333558 23.863806
2009-07-14 07:24:45 51°19.193 2°52.237 18.8577 4.613671 34.331611 23.863806
2009-07-14 07:24:50 51°19.209 2°52.237 18.8585 4.61336 34.329013 23.863806
2009-07-14 07:24:54 51°19.223 2°52.237 18.859 4.613048 34.326415 23.89863
2009-07-14 07:24:59 51°19.239 2°52.237 18.8586 4.613048 34.326415 23.89863
2009-07-14 07:25:04 51°19.256 2°52.238 18.8593 4.612944 34.325549 23.89863
2009-07-14 07:25:10 51°19.276 2°52.238 18.8596 4.612529 34.322736 23.933454
2009-07-14 07:25:14 51°19.29 2°52.239 18.862 4.612321 34.321654 23.933454
2009-07-14 07:25:19 51°19.307 2°52.239 18.8612 4.612114 34.319922 23.968278
2009-07-14 07:25:24 51°19.323 2°52.238 18.8622 4.611906 34.31819 23.968278
2009-07-14 07:25:30 51°19.343 2°52.239 18.8639 4.611906 34.31819 23.968278
2009-07-14 07:25:34 51°19.357 2°52.239 18.8694 4.611594 34.316243 23.968278
2009-07-14 07:25:40 51°19.377 2°52.239 18.8715 4.611283 34.313645 24.003102
2009-07-14 07:25:45 51°19.393 2°52.238 18.8711 4.610868 34.310181 24.07275
2009-07-14 07:25:50 51°19.41 2°52.238 18.8745 4.610244 34.304336 24.07275
2009-07-14 07:25:54 51°19.423 2°52.238 18.8763 4.609725 34.299357 24.107575
2009-07-14 07:26:00 51°19.443 2°52.237 18.8796 4.609725 34.299357 24.107575
2009-07-14 07:26:05 51°19.46 2°52.236 18.8812 4.608998 34.292646 24.212047
2009-07-14 07:26:10 51°19.476 2°52.235 18.8861 4.608271 34.284638 24.246871
2009-07-14 07:26:14 51°19.49 2°52.234 18.8941 4.607648 34.276846 24.246871
2009-07-14 07:26:20 51°19.51 2°52.233 18.892 4.606817 34.268623 24.351343
2009-07-14 07:26:25 51°19.526 2°52.232 18.8979 4.605883 34.258887 24.386167
2009-07-14 07:26:30 51°19.543 2°52.23 18.904 4.605883 34.258887 24.386167
2009-07-14 07:26:34 51°19.556 2°52.23 18.9074 4.60474 34.246772 24.420991
2009-07-14 07:26:39 51°19.572 2°52.229 18.9087 4.603702 34.236174 24.455815
2009-07-14 07:26:44 51°19.589 2°52.228 18.9102 4.60204 34.21909 24.490639
2009-07-14 07:26:50 51°19.609 2°52.227 18.9147 4.60069 34.203958 24.629935
2009-07-14 07:26:54 51°19.623 2°52.226 18.9186 4.598925 34.186665 24.664759
2009-07-14 07:27:00 51°19.642 2°52.225 18.9214 4.598925 34.186665 24.664759
2009-07-14 07:27:04 51°19.656 2°52.224 18.9224 4.597159 34.167436 24.734408
2009-07-14 07:27:10 51°19.675 2°52.222 18.9258 4.595913 34.153828 24.804056
2009-07-14 07:27:14 51°19.689 2°52.221 18.9286 4.594563 34.139359 24.873704
2009-07-14 07:27:20 51°19.708 2°52.22 18.932 4.593421 34.127268 24.873704
2009-07-14 07:27:25 51°19.725 2°52.219 18.9355 4.592279 34.114533 24.908528
2009-07-14 07:27:30 51°19.742 2°52.218 18.9407 4.592279 34.114533 24.908528
2009-07-14 07:27:35 51°19.758 2°52.217 18.9449 4.591136 34.101802 24.943352
2009-07-14 07:27:39 51°19.772 2°52.216 18.9494 4.590409 34.093819 25.082648
2009-07-14 07:27:44 51°19.788 2°52.215 18.9533 4.589059 34.079365 25.18712
2009-07-14 07:27:50 51°19.808 2°52.214 18.9574 4.587502 34.06383 25.152296
2009-07-14 07:27:54 51°19.821 2°52.214 18.964 4.585944 34.047656 25.291592
2009-07-14 07:28:00 51°19.841 2°52.213 18.9666 4.585944 34.047656 25.291592
2009-07-14 07:28:05 51°19.858 2°52.213 18.9699 4.584282 34.030621 25.326416
2009-07-14 07:28:10 51°19.875 2°52.212 18.9744 4.582413 34.011222 25.36124
2009-07-14 07:28:14 51°19.888 2°52.211 18.9777 4.58044 33.990965 25.500537
2009-07-14 07:28:20 51°19.908 2°52.211 18.9792 4.578571 33.971577 25.535361
2009-07-14 07:28:25 51°19.925 2°52.21 18.9826 4.576702 33.952194 25.674657
2009-07-14 07:28:30 51°19.941 2°52.209 18.9863 4.576702 33.952194 25.674657
2009-07-14 07:28:34 51°19.955 2°52.209 18.9898 4.574936 33.93304 25.639833
2009-07-14 07:28:40 51°19.975 2°52.209 18.9919 4.573171 33.914532 25.779129
2009-07-14 07:28:45 51°19.992 2°52.209 18.9941 4.571406 33.896029 25.848777
2009-07-14 07:28:50 51°20.009 2°52.209 18.9963 4.57016 33.882482 25.883601
2009-07-14 07:28:54 51°20.022 2°52.209 18.998 4.569017 33.869801 25.953249
2009-07-14 07:28:59 51°20.039 2°52.208 18.9998 4.569017 33.869801 25.953249
2009-07-14 07:29:04 51°20.056 2°52.208 19.0013 4.567771 33.85626 26.022897
2009-07-14 07:29:10 51°20.076 2°52.208 19.0023 4.566421 33.8425 26.022897
2009-07-14 07:29:14 51°20.09 2°52.208 19.0025 4.564448 33.822934 26.12737
2009-07-14 07:29:19 51°20.106 2°52.207 19.0042 4.562891 33.807457 26.092546
2009-07-14 07:29:24 51°20.123 2°52.207 19.0071 4.561852 33.796291 26.30149
2009-07-14 07:29:30 51°20.144 2°52.206 19.0086 4.561852 33.796291 26.30149
2009-07-14 07:29:34 51°20.157 2°52.205 19.0115 4.560606 33.784041 26.197018
2009-07-14 07:29:40 51°20.177 2°52.204 19.01 4.55936 33.77243 26.231842
2009-07-14 07:29:45 51°20.194 2°52.203 19.0116 4.558114 33.760184 26.266666
2009-07-14 07:29:50 51°20.211 2°52.202 19.0128 4.557076 33.750299 26.336314
2009-07-14 07:29:55 51°20.228 2°52.203 19.0145 4.555622 33.736971 26.336314
2009-07-14 07:29:59 51°20.241 2°52.203 19.015 4.555622 33.736971 26.336314
2009-07-14 07:30:04 51°20.258 2°52.203 19.0162 4.555103 33.730757 26.336314
2009-07-14 07:30:10 51°20.278 2°52.203 19.0168 4.55448 33.723683 26.440786
2009-07-14 07:30:14 51°20.291 2°52.204 19.0177 4.553649 33.71616 26.440786
2009-07-14 07:30:20 51°20.311 2°52.203 19.0191 4.552922 33.708226 26.440786
2009-07-14 07:30:25 51°20.328 2°52.203 19.0184 4.552403 33.703287 26.47561
2009-07-14 07:30:30 51°20.345 2°52.203 19.0207 4.552403 33.703287 26.47561
2009-07-14 07:30:34 51°20.358 2°52.202 19.0199 4.551365 33.693409 26.510434
2009-07-14 07:30:39 51°20.375 2°52.202 19.0201 4.550949 33.688696 26.64973
2009-07-14 07:30:45 51°20.394 2°52.2 19.0207 4.550015 33.68095 26.823851
2009-07-14 07:30:50 51°20.411 2°52.2 19.0187 4.54908 33.6713 26.893499
2009-07-14 07:30:54 51°20.425 2°52.198 19.0185 4.548354 33.665276 26.997971
2009-07-14 07:31:00 51°20.445 2°52.197 19.0197 4.548354 33.665276 26.997971
2009-07-14 07:31:05 51°20.461 2°52.196 19.0195 4.54773 33.658844 27.172091
2009-07-14 07:31:10 51°20.478 2°52.196 19.0186 4.546692 33.649605 27.346212
2009-07-14 07:31:14 51°20.491 2°52.195 19.0183 4.545654 33.641001 27.485508
2009-07-14 07:31:20 51°20.511 2°52.195 19.0168 4.544823 33.633484 27.555156
2009-07-14 07:31:25 51°20.527 2°52.195 19.0146 4.543785 33.625515 27.624804
2009-07-14 07:31:30 51°20.544 2°52.195 19.0149 4.543785 33.625515 27.624804
2009-07-14 07:31:35 51°20.561 2°52.195 19.0141 4.543058 33.61886 27.729276
2009-07-14 07:31:39 51°20.574 2°52.194 19.0143 4.54202 33.610891 27.93822
2009-07-14 07:31:44 51°20.59 2°52.194 19.0132 4.54067 33.599708 28.112341
2009-07-14 07:31:50 51°20.61 2°52.195 19.0133 4.539424 33.590019 28.251637
2009-07-14 07:31:54 51°20.624 2°52.195 19.0112 4.538282 33.58119 28.251637
2009-07-14 07:32:00 51°20.643 2°52.195 19.0124 4.538282 33.58119 28.251637
2009-07-14 07:32:04 51°20.657 2°52.195 19.0102 4.536828 33.569781 28.495405
2009-07-14 07:32:10 51°20.676 2°52.194 19.0111 4.535582 33.560093 28.565053
2009-07-14 07:32:15 51°20.693 2°52.194 19.0103 4.534336 33.550405 28.70435
2009-07-14 07:32:20 51°20.71 2°52.193 19.0081 4.533298 33.541804 28.773998
2009-07-14 07:32:25 51°20.727 2°52.192 19.0067 4.532052 33.532116 28.843646
2009-07-14 07:32:30 51°20.743 2°52.191 19.0067 4.532052 33.532116 28.843646
2009-07-14 07:32:34 51°20.757 2°52.191 19.0063 4.531014 33.524148 29.087414
2009-07-14 07:32:40 51°20.777 2°52.19 19.0062 4.529872 33.515953 29.017766
2009-07-14 07:32:45 51°20.793 2°52.19 19.0028 4.529249 33.510793 29.05259
2009-07-14 07:32:50 51°20.81 2°52.19 19.0023 4.52873 33.507125 29.122238
2009-07-14 07:32:54 51°20.823 2°52.19 19.0036 4.52738 33.496577 29.191886
2009-07-14 07:32:59 51°20.84 2°52.189 19.0032 4.52738 33.496577 29.191886
2009-07-14 07:33:05 51°20.86 2°52.188 19.0048 4.526549 33.490961 29.296359
2009-07-14 07:33:10 51°20.876 2°52.187 19.0005 4.525615 33.483222 29.191886
2009-07-14 07:33:14 51°20.89 2°52.186 19.0032 4.524473 33.474394 29.261534
2009-07-14 07:33:20 51°20.91 2°52.185 19.0019 4.523227 33.465338 29.296359
2009-07-14 07:33:25 51°20.926 2°52.185 18.9992 4.522085 33.457141 29.331183
2009-07-14 07:33:30 51°20.943 2°52.185 19.0013 4.522085 33.457141 29.331183
2009-07-14 07:33:34 51°20.956 2°52.185 19.0007 4.520943 33.447683 29.331183
2009-07-14 07:33:40 51°20.976 2°52.184 19.0022 4.519904 33.439716 29.261534
2009-07-14 07:33:45 51°20.993 2°52.183 19.0026 4.518658 33.429398 29.157062
2009-07-14 07:33:50 51°21.01 2°52.182 19.004 4.518035 33.42424 29.261534
2009-07-14 07:33:55 51°21.026 2°52.182 19.0009 4.516893 33.415413 29.122238
2009-07-14 07:33:59 51°21.039 2°52.182 19.0002 4.516893 33.415413 29.122238
2009-07-14 07:34:04 51°21.056 2°52.181 19.0002 4.515751 33.406586 29.157062
2009-07-14 07:34:10 51°21.076 2°52.182 19.0007 4.514609 33.39776 29.157062
2009-07-14 07:34:14 51°21.089 2°52.181 19.0009 4.513571 33.389163 28.982942
2009-07-14 07:34:20 51°21.109 2°52.181 19.0022 4.512325 33.378218 28.982942
2009-07-14 07:34:24 51°21.123 2°52.18 19.0032 4.511183 33.368763 29.05259
2009-07-14 07:34:30 51°21.143 2°52.179 19.0031 4.511183 33.368763 29.05259
2009-07-14 07:34:35 51°21.159 2°52.179 19.0042 4.509833 33.357589 28.87847
2009-07-14 07:34:40 51°21.176 2°52.179 19.0038 4.509106 33.351573 28.808822
2009-07-14 07:34:45 51°21.192 2°52.178 19.0031 4.508068 33.342979 28.739174
2009-07-14 07:34:50 51°21.209 2°52.178 19.0047 4.507238 33.336103 28.739174
2009-07-14 07:34:54 51°21.222 2°52.177 19.0051 4.506822 33.332037 28.669526
2009-07-14 07:35:00 51°21.242 2°52.176 19.0052 4.506822 33.332037 28.669526
2009-07-14 07:35:05 51°21.259 2°52.175 19.0062 4.505888 33.323675 28.565053
2009-07-14 07:35:10 51°21.276 2°52.173 19.0066 4.50485 33.315082 28.599877
2009-07-14 07:35:14 51°21.289 2°52.173 19.0085 4.504123 33.309067 28.565053
2009-07-14 07:35:20 51°21.309 2°52.172 19.0085 4.503188 33.300706 28.495405
2009-07-14 07:35:25 51°21.325 2°52.171 19.0093 4.502566 33.29555 28.460581
2009-07-14 07:35:30 51°21.342 2°52.17 19.0104 4.502566 33.29555 28.460581
2009-07-14 07:35:34 51°21.355 2°52.17 19.0113 4.501735 33.288049 28.356109
2009-07-14 07:35:40 51°21.375 2°52.169 19.0136 4.501008 33.281408 28.356109
2009-07-14 07:35:45 51°21.392 2°52.168 19.0137 4.500385 33.275626 28.251637
2009-07-14 07:35:50 51°21.409 2°52.166 19.0139 4.499451 33.267894 28.181989
2009-07-14 07:35:54 51°21.422 2°52.165 19.0159 4.49862 33.259768 28.181989
2009-07-14 07:36:00 51°21.442 2°52.164 19.0164 4.49862 33.259768 28.181989
2009-07-14 07:36:05 51°21.459 2°52.163 19.0163 4.498205 33.255705 28.007869
2009-07-14 07:36:10 51°21.475 2°52.163 19.017 4.497893 33.251875 27.868572
2009-07-14 07:36:15 51°21.492 2°52.162 19.0169 4.497478 33.247186 27.7641
2009-07-14 07:36:20 51°21.509 2°52.161 19.0174 4.496959 33.242265 27.729276
2009-07-14 07:36:25 51°21.526 2°52.161 19.0178 4.496232 33.235627 27.7641
2009-07-14 07:36:30 51°21.543 2°52.161 19.018 4.496232 33.235627 27.7641
2009-07-14 07:36:35 51°21.559 2°52.161 19.0187 4.495713 33.230707 27.58998
2009-07-14 07:36:40 51°21.576 2°52.16 19.0189 4.495298 33.226019 27.41586
2009-07-14 07:36:44 51°21.589 2°52.159 19.0191 4.494779 33.221726 27.381036
2009-07-14 07:36:50 51°21.609 2°52.159 19.0212 4.49426 33.21618 27.450684
2009-07-14 07:36:54 51°21.623 2°52.158 19.0214 4.493637 33.211029 27.450684
2009-07-14 07:37:00 51°21.643 2°52.157 19.0211 4.493637 33.211029 27.450684
2009-07-14 07:37:05 51°21.659 2°52.156 19.023 4.492806 33.20416 27.41586
2009-07-14 07:37:10 51°21.676 2°52.156 19.0238 4.492183 33.198383 27.276563
2009-07-14 07:37:14 51°21.69 2°52.156 19.0241 4.491353 33.191515 27.311387
2009-07-14 07:37:20 51°21.71 2°52.155 19.0251 4.490834 33.186597 27.206915
2009-07-14 07:37:25 51°21.727 2°52.155 19.0271 4.490626 33.183629 27.206915
2009-07-14 07:37:30 51°21.744 2°52.155 19.0278 4.490626 33.183629 27.206915
2009-07-14 07:37:34 51°21.757 2°52.155 19.0292 4.490314 33.181054 27.172091
2009-07-14 07:37:39 51°21.774 2°52.156 19.0286 4.490003 33.177853 27.172091
2009-07-14 07:37:45 51°21.794 2°52.157 19.0288 4.489691 33.174653 27.172091
2009-07-14 07:37:50 51°21.811 2°52.157 19.0302 4.489484 33.172311 27.172091
2009-07-14 07:37:54 51°21.825 2°52.157 19.031 4.489068 33.167628 27.172091
2009-07-14 07:37:59 51°21.842 2°52.158 19.0312 4.489068 33.167628 27.172091
2009-07-14 07:38:05 51°21.862 2°52.159 19.0325 4.488757 33.164428 27.172091
2009-07-14 07:38:10 51°21.879 2°52.16 19.0329 4.488549 33.161462 27.172091
2009-07-14 07:38:14 51°21.893 2°52.16 19.0323 4.488342 33.159121 27.206915
2009-07-14 07:38:19 51°21.91 2°52.16 19.0335 4.487823 33.154205 27.172091
2009-07-14 07:38:24 51°21.927 2°52.159 19.0332 4.487615 33.151864 27.206915
2009-07-14 07:38:30 51°21.947 2°52.159 19.0338 4.487615 33.151864 27.206915
2009-07-14 07:38:34 51°21.961 2°52.159 19.0331 4.487407 33.149523 27.172091
2009-07-14 07:38:40 51°21.981 2°52.159 19.0325 4.4872 33.147807 26.997971
2009-07-14 07:38:45 51°21.998 2°52.16 19.0326 4.4872 33.147182 26.928323
2009-07-14 07:38:50 51°22.015 2°52.16 19.0346 4.487407 33.148274 26.893499
2009-07-14 07:38:55 51°22.032 2°52.16 19.0316 4.487511 33.148508 26.963147
2009-07-14 07:38:59 51°22.046 2°52.16 19.03 4.487511 33.148508 26.963147
2009-07-14 07:39:04 51°22.063 2°52.161 19.0284 4.487926 33.151316 26.893499
2009-07-14 07:39:10 51°22.083 2°52.161 19.0282 4.488549 33.156464 26.789027
2009-07-14 07:39:14 51°22.097 2°52.161 19.0285 4.489068 33.161379 26.823851
2009-07-14 07:39:20 51°22.117 2°52.162 19.0273 4.489587 33.16567 26.754203
2009-07-14 07:39:25 51°22.134 2°52.161 19.0258 4.490107 33.169336 26.684555
2009-07-14 07:39:30 51°22.151 2°52.162 19.0255 4.490107 33.169336 26.684555
2009-07-14 07:39:34 51°22.165 2°52.162 19.025 4.49073 33.175735 26.64973
2009-07-14 07:39:40 51°22.185 2°52.163 19.0235 4.491249 33.180651 26.545258
2009-07-14 07:39:45 51°22.203 2°52.163 19.0252 4.491768 33.186193 26.440786
2009-07-14 07:39:50 51°22.22 2°52.163 19.0246 4.491975 33.187909 26.47561
2009-07-14 07:39:54 51°22.233 2°52.163 19.025 4.492391 33.191968 26.405962
2009-07-14 07:40:00 51°22.254 2°52.163 19.0243 4.492391 33.191968 26.405962
2009-07-14 07:40:05 51°22.271 2°52.164 19.0195 4.492702 33.195168 26.405962
2009-07-14 07:40:10 51°22.288 2°52.164 19.0221 4.493014 33.198995 26.371138
2009-07-14 07:40:14 51°22.301 2°52.165 19.0204 4.493429 33.203054 26.371138
2009-07-14 07:40:19 51°22.318 2°52.165 19.0186 4.49374 33.205629 26.371138
2009-07-14 07:40:25 51°22.338 2°52.166 19.0158 4.494156 33.209063 26.371138
2009-07-14 07:40:30 51°22.356 2°52.166 19.0175 4.494156 33.209063 26.371138
2009-07-14 07:40:34 51°22.369 2°52.166 19.0135 4.494571 33.213123 26.266666
2009-07-14 07:40:39 51°22.386 2°52.167 19.0147 4.49509 33.218667 26.231842
2009-07-14 07:40:44 51°22.403 2°52.167 19.0125 4.495194 33.220151 26.231842
2009-07-14 07:40:50 51°22.423 2°52.167 19.0139 4.495402 33.222495 26.231842
2009-07-14 07:40:54 51°22.437 2°52.167 19.0085 4.495817 33.227181 26.30149
2009-07-14 07:41:00 51°22.457 2°52.169 19.0096 4.495817 33.227181 26.30149
2009-07-14 07:41:04 51°22.47 2°52.169 19.0051 4.496232 33.231242 26.371138
2009-07-14 07:41:10 51°22.49 2°52.17 19.0053 4.49644 33.234212 26.371138
2009-07-14 07:41:15 51°22.507 2°52.17 19.0021 4.496751 33.237415 26.371138
2009-07-14 07:41:20 51°22.523 2°52.17 19.0022 4.496959 33.239759 26.30149
2009-07-14 07:41:25 51°22.54 2°52.17 19.0017 4.497374 33.245074 26.266666
2009-07-14 07:41:30 51°22.557 2°52.169 19.0002 4.497374 33.245074 26.266666
2009-07-14 07:41:35 51°22.573 2°52.169 18.9963 4.49779 33.249762 26.162194
2009-07-14 07:41:40 51°22.59 2°52.169 18.9973 4.498101 33.253593 26.162194
2009-07-14 07:41:45 51°22.607 2°52.169 18.9951 4.498516 33.258909 26.057722
2009-07-14 07:41:50 51°22.624 2°52.169 18.9937 4.498724 33.261254 25.988073
2009-07-14 07:41:54 51°22.637 2°52.17 18.9952 4.498932 33.264854 25.883601
2009-07-14 07:42:00 51°22.657 2°52.17 18.9928 4.498932 33.264854 25.883601
2009-07-14 07:42:05 51°22.674 2°52.17 18.9946 4.499139 33.267826 25.848777
2009-07-14 07:42:10 51°22.691 2°52.17 18.9909 4.499347 33.270799 25.848777
2009-07-14 07:42:14 51°22.704 2°52.17 18.9921 4.499555 33.273772 25.709481
2009-07-14 07:42:19 51°22.721 2°52.17 18.9878 4.499762 33.276746 25.674657
2009-07-14 07:42:25 51°22.741 2°52.17 18.9876 4.499866 33.278232 25.570185
2009-07-14 07:42:30 51°22.758 2°52.171 18.9859 4.499866 33.278232 25.570185
2009-07-14 07:42:34 51°22.771 2°52.17 18.9843 4.49997 33.280347 25.674657
2009-07-14 07:42:40 51°22.791 2°52.17 18.9836 4.500074 33.281206 25.605009
2009-07-14 07:42:45 51°22.808 2°52.17 18.9817 4.500178 33.282693 25.605009
2009-07-14 07:42:50 51°22.825 2°52.171 18.9792 4.500282 33.284808 25.465713
2009-07-14 07:42:55 51°22.842 2°52.171 18.9785 4.500489 33.287782 25.430889
2009-07-14 07:42:59 51°22.855 2°52.171 18.9781 4.500489 33.287782 25.430889
2009-07-14 07:43:04 51°22.872 2°52.171 18.9756 4.500697 33.291385 25.326416
2009-07-14 07:43:10 51°22.893 2°52.172 18.9727 4.500801 33.294128 25.326416
2009-07-14 07:43:14 51°22.906 2°52.172 18.9735 4.501008 33.296475 25.291592
2009-07-14 07:43:19 51°22.923 2°52.172 18.9731 4.501216 33.299451 25.221944
2009-07-14 07:43:24 51°22.94 2°52.171 18.9726 4.50132 33.301567 25.117472
2009-07-14 07:43:30 51°22.96 2°52.171 18.9735 4.50132 33.301567 25.117472
2009-07-14 07:43:34 51°22.973 2°52.171 18.9709 4.501424 33.303683 25.082648
2009-07-14 07:43:40 51°22.994 2°52.17 18.9695 4.501528 33.306428 25.013
2009-07-14 07:43:45 51°23.011 2°52.169 18.9661 4.501632 33.308544 25.047824
2009-07-14 07:43:50 51°23.028 2°52.168 18.9643 4.501632 33.309801 25.013
2009-07-14 07:43:54 51°23.041 2°52.167 18.967 4.501632 33.31043 24.978176
2009-07-14 07:44:00 51°23.061 2°52.167 18.9653 4.501632 33.31043 24.978176
2009-07-14 07:44:05 51°23.078 2°52.166 18.9608 4.501632 33.311059 24.978176
2009-07-14 07:44:10 51°23.095 2°52.166 18.9603 4.501735 33.312547 24.908528
2009-07-14 07:44:14 51°23.108 2°52.165 18.9598 4.501839 33.314035 24.83888
2009-07-14 07:44:20 51°23.128 2°52.165 18.9573 4.501839 33.315922 24.908528
2009-07-14 07:44:25 51°23.145 2°52.165 18.9557 4.501839 33.316551 24.943352
2009-07-14 07:44:30 51°23.162 2°52.164 18.9515 4.501839 33.316551 24.943352
2009-07-14 07:44:34 51°23.176 2°52.164 18.9519 4.501839 33.317808 24.83888
2009-07-14 07:44:39 51°23.193 2°52.164 18.9517 4.501943 33.319297 24.873704
2009-07-14 07:44:45 51°23.213 2°52.164 18.9487 4.502047 33.322044 24.873704
2009-07-14 07:44:50 51°23.23 2°52.164 18.9469 4.502047 33.323302 24.83888
2009-07-14 07:44:54 51°23.244 2°52.164 18.9445 4.502151 33.326049 24.734408
2009-07-14 07:44:59 51°23.261 2°52.165 18.9467 4.502151 33.326049 24.734408
2009-07-14 07:45:04 51°23.278 2°52.165 18.946 4.502151 33.327937 24.769232
2009-07-14 07:45:10 51°23.298 2°52.165 18.9442 4.502151 33.329195 24.734408
2009-07-14 07:45:14 51°23.312 2°52.165 18.9447 4.502047 33.330223 24.664759
2009-07-14 07:45:20 51°23.332 2°52.165 18.9436 4.500697 33.320299 24.664759
2009-07-14 07:45:25 51°23.35 2°52.165 18.9378 4.502151 33.333601 24.595111
2009-07-14 07:45:30 51°23.367 2°52.166 18.9407 4.502151 33.333601 24.595111
2009-07-14 07:45:35 51°23.384 2°52.166 18.9398 4.502151 33.33486 24.595111
2009-07-14 07:45:40 51°23.401 2°52.166 18.9368 4.502151 33.335489 24.560287
2009-07-14 07:45:45 51°23.418 2°52.166 18.9335 4.502255 33.337609 24.490639
2009-07-14 07:45:50 51°23.435 2°52.166 18.9365 4.502359 33.339099 24.420991
2009-07-14 07:45:55 51°23.452 2°52.166 18.934 4.502359 33.340358 24.386167
2009-07-14 07:46:00 51°23.469 2°52.166 18.9334 4.502359 33.340358 24.386167
2009-07-14 07:46:05 51°23.486 2°52.166 18.9333 4.502359 33.341618 24.386167
2009-07-14 07:46:10 51°23.503 2°52.167 18.933 4.502359 33.342247 24.351343
2009-07-14 07:46:14 51°23.517 2°52.167 18.9312 4.502463 33.344368 24.246871
2009-07-14 07:46:20 51°23.537 2°52.167 18.9274 4.502463 33.346257 24.281695
2009-07-14 07:46:25 51°23.554 2°52.167 18.9273 4.502567 33.347748 24.246871
2009-07-14 07:46:30 51°23.571 2°52.166 18.9299 4.502567 33.347748 24.246871
2009-07-14 07:46:34 51°23.585 2°52.165 18.9252 4.50267 33.348608 24.212047
2009-07-14 07:46:40 51°23.605 2°52.165 18.9248 4.502774 33.350729 24.177223
2009-07-14 07:46:45 51°23.622 2°52.165 18.9209 4.502878 33.35222 24.107575
2009-07-14 07:46:50 51°23.639 2°52.165 18.9186 4.502982 33.354971 24.07275
2009-07-14 07:46:54 51°23.652 2°52.165 18.9174 4.503086 33.357092 24.107575
2009-07-14 07:46:59 51°23.669 2°52.165 18.9168 4.503086 33.357092 24.107575
2009-07-14 07:47:05 51°23.689 2°52.165 18.9145 4.50319 33.358583 24.07275
2009-07-14 07:47:10 51°23.706 2°52.165 18.9148 4.503397 33.360935 24.07275
2009-07-14 07:47:14 51°23.72 2°52.165 18.9111 4.503605 33.364548 24.003102
2009-07-14 07:47:19 51°23.737 2°52.165 18.9119 4.503709 33.3673 24.003102
2009-07-14 07:47:24 51°23.754 2°52.164 18.9106 4.503813 33.369422 23.968278
2009-07-14 07:47:30 51°23.774 2°52.164 18.9102 4.503813 33.369422 23.968278
2009-07-14 07:47:34 51°23.787 2°52.163 18.9082 4.503813 33.371314 24.037926
2009-07-14 07:47:40 51°23.808 2°52.162 18.9087 4.503813 33.372576 24.037926
2009-07-14 07:47:45 51°23.825 2°52.161 18.9069 4.503917 33.374698 23.968278
2009-07-14 07:47:50 51°23.842 2°52.161 18.9061 4.503917 33.37596 23.968278
2009-07-14 07:47:55 51°23.859 2°52.16 18.9053 4.503917 33.377222 24.037926
2009-07-14 07:48:00 51°23.876 2°52.16 18.9039 4.503917 33.377222 24.037926
2009-07-14 07:48:05 51°23.892 2°52.16 18.9015 4.503917 33.377853 24.003102
2009-07-14 07:48:10 51°23.909 2°52.16 18.9026 4.50402 33.379976 24.003102
2009-07-14 07:48:15 51°23.926 2°52.16 18.9007 4.504124 33.381468 23.968278
2009-07-14 07:48:20 51°23.943 2°52.16 18.8978 4.504124 33.3821 24.003102
2009-07-14 07:48:25 51°23.96 2°52.159 18.8986 4.504124 33.382731 23.968278
2009-07-14 07:48:30 51°23.976 2°52.158 18.8985 4.504124 33.382731 23.968278
2009-07-14 07:48:34 51°23.99 2°52.157 18.8946 4.504124 33.384624 23.933454
2009-07-14 07:48:40 51°24.01 2°52.156 18.8944 4.504124 33.385887 23.968278
2009-07-14 07:48:45 51°24.027 2°52.155 18.8937 4.504021 33.385657 23.933454
2009-07-14 07:48:50 51°24.044 2°52.154 18.8966 4.504021 33.386919 23.933454
2009-07-14 07:48:54 51°24.057 2°52.153 18.8926 4.503917 33.387321 23.89863
2009-07-14 07:49:00 51°24.077 2°52.152 18.8887 4.503917 33.387321 23.89863
2009-07-14 07:49:05 51°24.094 2°52.15 18.89 4.503813 33.387722 23.89863
2009-07-14 07:49:10 51°24.111 2°52.15 18.8874 4.503709 33.388124 23.863806
2009-07-14 07:49:14 51°24.124 2°52.149 18.8914 4.503709 33.389387 23.863806
2009-07-14 07:49:19 51°24.141 2°52.148 18.8876 4.503605 33.389157 23.863806
2009-07-14 07:49:25 51°24.161 2°52.147 18.8872 4.503502 33.388927 23.794158
2009-07-14 07:49:30 51°24.178 2°52.146 18.8864 4.503502 33.388927 23.794158
2009-07-14 07:49:34 51°24.191 2°52.145 18.8885 4.503398 33.389328 23.759334
2009-07-14 07:49:39 51°24.208 2°52.145 18.885 4.503294 33.38973 23.794158
2009-07-14 07:49:44 51°24.225 2°52.144 18.8804 4.503086 33.388638 23.794158
2009-07-14 07:49:50 51°24.245 2°52.143 18.8825 4.503086 33.388638 23.72451
2009-07-14 07:49:54 51°24.258 2°52.143 18.8804 4.502982 33.38904 23.72451
2009-07-14 07:50:00 51°24.279 2°52.143 18.8781 4.502982 33.38904 23.72451
2009-07-14 07:50:04 51°24.292 2°52.143 18.8773 4.502775 33.387949 23.72451
2009-07-14 07:50:10 51°24.313 2°52.143 18.873 4.502775 33.38858 23.72451
2009-07-14 07:50:15 51°24.329 2°52.143 18.876 4.502671 33.38835 23.72451
2009-07-14 07:50:20 51°24.346 2°52.142 18.8722 4.502567 33.388752 23.689686
2009-07-14 07:50:25 51°24.363 2°52.142 18.8713 4.502463 33.389154 23.759334
2009-07-14 07:50:30 51°24.38 2°52.141 18.8742 4.502463 33.389154 23.759334
2009-07-14 07:50:35 51°24.397 2°52.141 18.8721 4.502463 33.390417 23.689686
2009-07-14 07:50:40 51°24.413 2°52.141 18.8699 4.50236 33.390819 23.759334
2009-07-14 07:50:45 51°24.43 2°52.14 18.8674 4.502256 33.392485 23.72451
2009-07-14 07:50:50 51°24.447 2°52.14 18.8663 4.502152 33.392887 23.759334
2009-07-14 07:50:54 51°24.46 2°52.139 18.8664 4.502048 33.393289 23.759334
2009-07-14 07:51:00 51°24.48 2°52.138 18.8632 4.502048 33.393289 23.759334
2009-07-14 07:51:05 51°24.497 2°52.137 18.8624 4.502048 33.393289 23.759334
2009-07-14 07:51:10 51°24.513 2°52.137 18.8614 4.502048 33.393921 23.72451
2009-07-14 07:51:14 51°24.526 2°52.136 18.8616 4.502048 33.395185 23.654862
2009-07-14 07:51:20 51°24.546 2°52.135 18.8596 4.502152 33.397311 23.72451
2009-07-14 07:51:25 51°24.563 2°52.134 18.8542 4.502152 33.398575 23.72451
2009-07-14 07:51:30 51°24.58 2°52.134 18.8531 4.502152 33.398575 23.72451
2009-07-14 07:51:34 51°24.593 2°52.134 18.8535 4.502048 33.398978 23.689686
2009-07-14 07:51:40 51°24.613 2°52.134 18.8487 4.502048 33.400242 23.620038
2009-07-14 07:51:45 51°24.63 2°52.134 18.8474 4.502152 33.401737 23.654862
2009-07-14 07:51:50 51°24.647 2°52.134 18.8482 4.502152 33.402369 23.689686
2009-07-14 07:51:54 51°24.66 2°52.134 18.848 4.502152 33.404266 23.585214
2009-07-14 07:52:00 51°24.68 2°52.134 18.8449 4.502152 33.404266 23.585214
2009-07-14 07:52:05 51°24.697 2°52.134 18.8436 4.501945 33.404439 23.585214
2009-07-14 07:52:10 51°24.714 2°52.134 18.8431 4.501737 33.405245 23.55039
2009-07-14 07:52:15 51°24.73 2°52.134 18.8421 4.501426 33.404556 23.480742
2009-07-14 07:52:20 51°24.747 2°52.134 18.8387 4.501218 33.404096 23.515566
2009-07-14 07:52:25 51°24.764 2°52.133 18.8374 4.50101 33.403637 23.55039
2009-07-14 07:52:30 51°24.78 2°52.133 18.8382 4.50101 33.403637 23.55039
2009-07-14 07:52:34 51°24.794 2°52.132 18.8365 4.500803 33.402545 23.515566
2009-07-14 07:52:40 51°24.814 2°52.131 18.8371 4.500491 33.401855 23.480742
2009-07-14 07:52:45 51°24.831 2°52.131 18.835 4.500284 33.401396 23.480742
2009-07-14 07:52:50 51°24.847 2°52.131 18.8344 4.499972 33.400074 23.445918
2009-07-14 07:52:55 51°24.864 2°52.131 18.8325 4.499557 33.39789 23.411093
2009-07-14 07:53:00 51°24.881 2°52.13 18.8314 4.499557 33.39789 23.411093
2009-07-14 07:53:05 51°24.897 2°52.13 18.8332 4.499246 33.396567 23.411093
2009-07-14 07:53:10 51°24.914 2°52.13 18.8318 4.498934 33.395245 23.376269
2009-07-14 07:53:14 51°24.928 2°52.13 18.8311 4.498727 33.394153 23.341445
2009-07-14 07:53:20 51°24.948 2°52.129 18.83 4.498623 33.393923 23.341445
2009-07-14 07:53:25 51°24.965 2°52.129 18.8287 4.498311 33.391968 23.306621
2009-07-14 07:53:30 51°24.981 2°52.128 18.8281 4.498311 33.391968 23.306621
2009-07-14 07:53:34 51°24.995 2°52.128 18.8318 4.498 33.390646 23.341445
2009-07-14 07:53:40 51°25.015 2°52.127 18.8297 4.497896 33.390416 23.271797
2009-07-14 07:53:45 51°25.032 2°52.127 18.8266 4.497688 33.389323 23.271797
2009-07-14 07:53:50 51°25.049 2°52.126 18.8252 4.497377 33.387368 23.202149
2009-07-14 07:53:54 51°25.062 2°52.126 18.8236 4.497273 33.387138 23.236973
2009-07-14 07:54:00 51°25.083 2°52.125 18.8235 4.497273 33.387138 23.236973
2009-07-14 07:54:05 51°25.099 2°52.124 18.8233 4.497169 33.386908 23.236973
2009-07-14 07:54:10 51°25.116 2°52.123 18.8218 4.497065 33.386046 23.236973
2009-07-14 07:54:14 51°25.13 2°52.123 18.8209 4.496962 33.385816 23.236973
2009-07-14 07:54:20 51°25.15 2°52.123 18.8199 4.496754 33.384723 23.167325
2009-07-14 07:54:25 51°25.167 2°52.122 18.8208 4.496546 33.384263 23.202149
2009-07-14 07:54:30 51°25.184 2°52.121 18.8194 4.496546 33.384263 23.202149
2009-07-14 07:54:35 51°25.201 2°52.121 18.8173 4.496339 33.383803 23.167325
2009-07-14 07:54:40 51°25.218 2°52.121 18.8192 4.496131 33.383343 23.202149
2009-07-14 07:54:44 51°25.231 2°52.12 18.8165 4.496027 33.383113 23.167325
2009-07-14 07:54:50 51°25.252 2°52.121 18.8132 4.49582 33.38202 23.132501
2009-07-14 07:54:54 51°25.266 2°52.121 18.8163 4.495716 33.38179 23.167325
2009-07-14 07:55:00 51°25.286 2°52.121 18.816 4.495716 33.38179 23.167325
2009-07-14 07:55:05 51°25.303 2°52.122 18.8138 4.495508 33.38133 23.167325
2009-07-14 07:55:10 51°25.32 2°52.121 18.8119 4.495301 33.380237 23.097677
2009-07-14 07:55:14 51°25.333 2°52.122 18.8129 4.495301 33.38087 23.097677
2009-07-14 07:55:20 51°25.354 2°52.121 18.8132 4.495197 33.38064 23.097677
2009-07-14 07:55:25 51°25.371 2°52.122 18.8131 4.494989 33.379547 23.097677
2009-07-14 07:55:30 51°25.388 2°52.121 18.812 4.494989 33.379547 23.097677
2009-07-14 07:55:34 51°25.402 2°52.121 18.8116 4.494885 33.379317 23.132501
2009-07-14 07:55:40 51°25.422 2°52.121 18.812 4.494885 33.37995 23.097677
2009-07-14 07:55:45 51°25.439 2°52.121 18.8148 4.494678 33.37949 23.097677
2009-07-14 07:55:50 51°25.456 2°52.121 18.8139 4.494678 33.37949 23.028029
2009-07-14 07:55:54 51°25.47 2°52.121 18.8158 4.494574 33.37926 23.028029
2009-07-14 07:56:00 51°25.49 2°52.122 18.8145 4.494574 33.37926 23.028029
2009-07-14 07:56:05 51°25.507 2°52.122 18.8163 4.494574 33.37926 23.062853
2009-07-14 07:56:10 51°25.524 2°52.122 18.8159 4.494574 33.379892 23.062853
2009-07-14 07:56:15 51°25.541 2°52.122 18.8172 4.494678 33.380755 23.028029
2009-07-14 07:56:20 51°25.558 2°52.122 18.8183 4.494782 33.380985 23.028029
2009-07-14 07:56:24 51°25.572 2°52.122 18.8175 4.494782 33.380985 23.028029
2009-07-14 07:56:30 51°25.592 2°52.121 18.8186 4.494782 33.380985 23.028029
2009-07-14 07:56:34 51°25.605 2°52.122 18.8193 4.494885 33.381215 23.028029
2009-07-14 07:56:40 51°25.626 2°52.122 18.8173 4.494989 33.381446 23.028029
2009-07-14 07:56:45 51°25.643 2°52.122 18.819 4.494989 33.381446 22.958381
2009-07-14 07:56:50 51°25.66 2°52.123 18.8178 4.495197 33.382538 22.993205
2009-07-14 07:56:55 51°25.677 2°52.123 18.817 4.495301 33.382768 23.028029
2009-07-14 07:57:00 51°25.694 2°52.124 18.8145 4.495301 33.382768 23.028029
2009-07-14 07:57:05 51°25.711 2°52.125 18.8123 4.495508 33.383861 23.028029
2009-07-14 07:57:10 51°25.728 2°52.125 18.8123 4.495716 33.385587 22.958381
2009-07-14 07:57:15 51°25.744 2°52.125 18.8145 4.495924 33.387313 22.993205
2009-07-14 07:57:20 51°25.761 2°52.126 18.8119 4.496131 33.389038 22.993205
2009-07-14 07:57:25 51°25.778 2°52.126 18.8075 4.49665 33.393353 22.958381
2009-07-14 07:57:30 51°25.795 2°52.127 18.8053 4.49665 33.393353 22.958381
2009-07-14 07:57:34 51°25.808 2°52.128 18.804 4.496962 33.396574 22.923557
2009-07-14 07:57:40 51°25.829 2°52.128 18.8015 4.49717 33.399566 22.958381
2009-07-14 07:57:45 51°25.845 2°52.128 18.7988 4.497481 33.402788 22.958381
2009-07-14 07:57:50 51°25.862 2°52.129 18.7966 4.497481 33.403422 22.958381
2009-07-14 07:57:54 51°25.876 2°52.129 18.7913 4.498104 33.409233 22.993205
2009-07-14 07:58:00 51°25.896 2°52.13 18.7864 4.498104 33.409233 22.993205
2009-07-14 07:58:05 51°25.913 2°52.13 18.7872 4.498312 33.412859 22.958381
2009-07-14 07:58:10 51°25.929 2°52.13 18.7858 4.498623 33.417983 22.958381
2009-07-14 07:58:14 51°25.943 2°52.129 18.7848 4.498935 33.42184 22.993205
2009-07-14 07:58:20 51°25.963 2°52.13 18.7787 4.499246 33.426965 22.993205
2009-07-14 07:58:25 51°25.98 2°52.129 18.7757 4.499558 33.432091 22.993205
2009-07-14 07:58:30 51°25.997 2°52.128 18.7742 4.499558 33.432091 22.993205
2009-07-14 07:58:35 51°26.013 2°52.127 18.772 4.499973 33.438715 23.028029
2009-07-14 07:58:40 51°26.03 2°52.125 18.7694 4.500181 33.44298 23.028029
2009-07-14 07:58:44 51°26.043 2°52.125 18.769 4.500388 33.447245 22.993205
2009-07-14 07:58:50 51°26.064 2°52.123 18.7628 4.500596 33.450876 22.993205
2009-07-14 07:58:54 51°26.077 2°52.123 18.7635 4.500908 33.456006 23.028029
2009-07-14 07:59:00 51°26.097 2°52.121 18.7612 4.500908 33.456006 23.028029
2009-07-14 07:59:04 51°26.11 2°52.121 18.7599 4.501219 33.461772 23.062853
2009-07-14 07:59:10 51°26.13 2°52.119 18.7571 4.501427 33.465405 22.993205
2009-07-14 07:59:15 51°26.147 2°52.119 18.7542 4.501634 33.469038 23.062853
2009-07-14 07:59:20 51°26.163 2°52.118 18.7503 4.501842 33.473307 23.028029
2009-07-14 07:59:25 51°26.18 2°52.117 18.7422 4.50205 33.477577 22.993205
2009-07-14 07:59:30 51°26.197 2°52.116 18.7447 4.50205 33.477577 22.993205
2009-07-14 07:59:35 51°26.214 2°52.115 18.7408 4.502154 33.479077 23.062853
2009-07-14 07:59:40 51°26.23 2°52.114 18.7373 4.502361 33.483984 22.993205
2009-07-14 07:59:45 51°26.247 2°52.113 18.7354 4.502361 33.486527 23.062853
2009-07-14 07:59:50 51°26.264 2°52.113 18.7298 4.502465 33.489935 23.062853
2009-07-14 07:59:54 51°26.277 2°52.112 18.7293 4.502465 33.492479 23.028029
2009-07-14 08:00:00 51°26.298 2°52.112 18.7235 4.502465 33.492479 23.028029
2009-07-14 08:00:05 51°26.314 2°52.112 18.7224 4.502569 33.495251 23.062853
2009-07-14 08:00:10 51°26.331 2°52.112 18.7209 4.502569 33.499069 23.028029
2009-07-14 08:00:14 51°26.345 2°52.112 18.7172 4.502465 33.500113 23.062853
2009-07-14 08:00:20 51°26.365 2°52.112 18.7162 4.502362 33.502431 23.062853
2009-07-14 08:00:25 51°26.382 2°52.113 18.7197 4.502258 33.505386 22.993205
2009-07-14 08:00:30 51°26.399 2°52.113 18.7134 4.502258 33.505386 22.993205
2009-07-14 08:00:34 51°26.413 2°52.113 18.7128 4.502258 33.507933 23.028029
2009-07-14 08:00:40 51°26.433 2°52.112 18.7105 4.502154 33.509615 23.062853
2009-07-14 08:00:45 51°26.45 2°52.112 18.7137 4.502154 33.511526 23.097677
2009-07-14 08:00:50 51°26.467 2°52.112 18.7095 4.501947 33.511706 23.097677
2009-07-14 08:00:55 51°26.484 2°52.112 18.7095 4.501947 33.513617 23.062853
2009-07-14 08:01:00 51°26.501 2°52.112 18.7063 4.501947 33.513617 23.062853
2009-07-14 08:01:05 51°26.518 2°52.112 18.7081 4.501843 33.514664 23.062853
2009-07-14 08:01:10 51°26.535 2°52.112 18.7119 4.501843 33.516575 22.993205
2009-07-14 08:01:14 51°26.549 2°52.112 18.7074 4.501843 33.518487 23.062853
2009-07-14 08:01:20 51°26.569 2°52.112 18.7042 4.501947 33.519989 23.028029
2009-07-14 08:01:25 51°26.587 2°52.112 18.7028 4.501947 33.521264 22.993205
2009-07-14 08:01:30 51°26.604 2°52.112 18.7083 4.501947 33.521264 22.993205
2009-07-14 08:01:34 51°26.617 2°52.111 18.7039 4.502051 33.523404 22.993205
2009-07-14 08:01:40 51°26.637 2°52.11 18.7017 4.502051 33.524042 23.028029
2009-07-14 08:01:45 51°26.654 2°52.108 18.704 4.502258 33.525135 22.993205
2009-07-14 08:01:50 51°26.671 2°52.107 18.7008 4.502362 33.526638 22.993205
2009-07-14 08:01:55 51°26.688 2°52.106 18.7016 4.502674 33.531146 22.993205
2009-07-14 08:02:00 51°26.705 2°52.105 18.6969 4.502674 33.531146 22.993205
2009-07-14 08:02:05 51°26.722 2°52.104 18.6958 4.502777 33.532649 22.958381
2009-07-14 08:02:10 51°26.739 2°52.103 18.6987 4.503089 33.535246 22.923557
2009-07-14 08:02:14 51°26.752 2°52.101 18.6939 4.503193 33.537387 22.958381
2009-07-14 08:02:20 51°26.772 2°52.099 18.6964 4.5034 33.540393 22.923557
2009-07-14 08:02:25 51°26.789 2°52.098 18.6871 4.503608 33.542762 22.888733
2009-07-14 08:02:30 51°26.806 2°52.096 18.6912 4.503608 33.542762 22.888733
2009-07-14 08:02:34 51°26.819 2°52.095 18.6882 4.50392 33.545997 22.888733
2009-07-14 08:02:40 51°26.839 2°52.094 18.6852 4.504231 33.550508 22.888733
2009-07-14 08:02:45 51°26.856 2°52.092 18.685 4.504439 33.552878 22.853909
2009-07-14 08:02:50 51°26.873 2°52.091 18.6819 4.50475 33.556113 22.853909
2009-07-14 08:02:54 51°26.886 2°52.09 18.6786 4.505269 33.561718 22.853909
2009-07-14 08:03:00 51°26.906 2°52.087 18.6769 4.505269 33.561718 22.853909
2009-07-14 08:03:05 51°26.923 2°52.086 18.6751 4.505685 33.567735 22.853909
2009-07-14 08:03:10 51°26.94 2°52.084 18.6707 4.505996 33.57161 22.853909
2009-07-14 08:03:14 51°26.953 2°52.083 18.6687 4.5061 33.573753 22.853909
2009-07-14 08:03:20 51°26.973 2°52.082 18.6698 4.506308 33.578041 22.888733
2009-07-14 08:03:25 51°26.99 2°52.08 18.6694 4.506619 33.582556 22.853909
2009-07-14 08:03:30 51°27.007 2°52.079 18.6678 4.506619 33.582556 22.853909
2009-07-14 08:03:35 51°27.024 2°52.078 18.6652 4.507035 33.588576 22.853909
2009-07-14 08:03:40 51°27.041 2°52.077 18.6651 4.507242 33.592227 22.819085
2009-07-14 08:03:45 51°27.058 2°52.075 18.6621 4.507554 33.596743 22.853909